Observation data for Crowell on 04/23/2019      Previous  Date  Next       Current Mesonet Observations  Soil Data  Daily Summary Page  Observations in Plain Language
KCR1 230500Z 09005KT 20/18 A2998 RMK A01 T01950181  RH  092%=      5-min Rain = 0
KCR1 230501Z 10006KT 20/18 A2998 RMK A01 T01950181  RH  092%=      5-min Rain = 0
KCR1 230502Z 09005KT 20/18 A2998 RMK A01 T01950181  RH  092%=      5-min Rain = 0
KCR1 230503Z 09006KT 20/18 A2998 RMK A01 T01950182  RH  092%=      5-min Rain = 0
KCR1 230504Z 10005KT 20/18 A2998 RMK A01 T01950181  RH  092%=      5-min Rain = 0
KCR1 230505Z 10005KT 19/18 A2998 RMK A01 T01940182  RH  092%=      5-min Rain = 0
KCR1 230506Z 09005KT 20/18 A2998 RMK A01 T01950182  RH  092%=      5-min Rain = 0
KCR1 230507Z 09005KT 19/18 A2998 RMK A01 T01940181  RH  092%=      5-min Rain = 0
KCR1 230508Z 09004KT 20/18 A2998 RMK A01 T01950182  RH  092%=      5-min Rain = 0
KCR1 230509Z 09004KT 19/18 A2998 RMK A01 T01940182  RH  093%=      5-min Rain = 0
KCR1 230510Z 10004KT 19/18 A2998 RMK A01 T01940182  RH  093%=      5-min Rain = 0
KCR1 230511Z 10005KT 19/18 A2998 RMK A01 T01940182  RH  093%=      5-min Rain = 0
KCR1 230512Z 10005KT 19/18 A2998 RMK A01 T01940181  RH  092%=      5-min Rain = 0
KCR1 230513Z 09005KT 19/18 A2998 RMK A01 T01940181  RH  092%=      5-min Rain = 0
KCR1 230514Z 10005KT 19/18 A2998 RMK A01 T01940181  RH  092%=      5-min Rain = 0
KCR1 230515Z 09005KT 19/18 A2998 RMK A01 T01940181  RH  092%=      5-min Rain = 0
KCR1 230516Z 10006KT 20/18 A2997 RMK A01 T01950181  RH  092%=      5-min Rain = 0
KCR1 230517Z 09006KT 19/18 A2997 RMK A01 T01940181  RH  092%=      5-min Rain = 0
KCR1 230518Z 09005KT 19/18 A2998 RMK A01 T01940180  RH  092%=      5-min Rain = 0
KCR1 230519Z 09006KT 20/18 A2998 RMK A01 T01950180  RH  092%=      5-min Rain = 0
KCR1 230520Z 09005KT 19/18 A2998 RMK A01 T01940181  RH  092%=      5-min Rain = 0
KCR1 230521Z 09005KT 19/18 A2998 RMK A01 T01940181  RH  092%=      5-min Rain = 0
KCR1 230522Z 09004KT 20/18 A2998 RMK A01 T01950181  RH  092%=      5-min Rain = 0
KCR1 230523Z 09004KT 20/18 A2998 RMK A01 T01950181  RH  092%=      5-min Rain = 0
KCR1 230524Z 09005KT 19/18 A2998 RMK A01 T01940181  RH  092%=      5-min Rain = 0
KCR1 230525Z 09005KT 19/18 A2998 RMK A01 T01940181  RH  092%=      5-min Rain = 0
KCR1 230526Z 09005KT 19/18 A2998 RMK A01 T01940180  RH  092%=      5-min Rain = 0
KCR1 230527Z 09004KT 19/18 A2998 RMK A01 T01940180  RH  092%=      5-min Rain = 0
KCR1 230528Z 09004KT 19/18 A2998 RMK A01 T01940180  RH  092%=      5-min Rain = 0
KCR1 230529Z 08004KT 19/18 A2998 RMK A01 T01940179  RH  091%=      5-min Rain = 0
KCR1 230530Z 09005KT 20/18 A2998 RMK A01 T01950180  RH  091%=      5-min Rain = 0
KCR1 230531Z 07004KT 19/18 A2998 RMK A01 T01940180  RH  091%=      5-min Rain = 0
KCR1 230532Z 06004KT 20/18 A2998 RMK A01 T01950180  RH  091%=      5-min Rain = 0
KCR1 230533Z 06005KT 20/18 A2998 RMK A01 T01950180  RH  091%=      5-min Rain = 0
KCR1 230534Z 06004KT 19/18 A2998 RMK A01 T01940180  RH  091%=      5-min Rain = 0
KCR1 230535Z 05004KT 19/18 A2998 RMK A01 T01940180  RH  091%=      5-min Rain = 0
KCR1 230536Z 04004KT 19/18 A2998 RMK A01 T01940182  RH  092%=      5-min Rain = 0
KCR1 230537Z 04005KT 20/18 A2998 RMK A01 T01950182  RH  092%=      5-min Rain = 0
KCR1 230538Z 03005KT 19/18 A2998 RMK A01 T01940182  RH  092%=      5-min Rain = 0
KCR1 230539Z 03005KT 19/18 A2998 RMK A01 T01940182  RH  092%=      5-min Rain = 0
KCR1 230540Z 01005KT 20/18 A2998 RMK A01 T01950182  RH  092%=      5-min Rain = 0
KCR1 230541Z 01006KT 19/18 A2998 RMK A01 T01940183  RH  093%=      5-min Rain = 0
KCR1 230542Z 01006KT 19/18 A2998 RMK A01 T01940183  RH  093%=      5-min Rain = 0
KCR1 230543Z 00006KT 19/18 A2998 RMK A01 T01940184  RH  094%=      5-min Rain = 0
KCR1 230544Z 00005KT 19/18 A2998 RMK A01 T01930184  RH  094%=      5-min Rain = 0
KCR1 230545Z 00006KT 19/18 A2998 RMK A01 T01920183  RH  095%=      5-min Rain = 0
KCR1 230546Z 00006KT 19/18 A2998 RMK A01 T01910183  RH  095%=      5-min Rain = 0
KCR1 230547Z 00006KT 19/18 A2998 RMK A01 T01900182  RH  096%=      5-min Rain = 0
KCR1 230548Z 34006KT 19/18 A2998 RMK A01 T01890182  RH  096%=      5-min Rain = 0
KCR1 230549Z 35005KT 19/18 A2998 RMK A01 T01880181  RH  096%=      5-min Rain = 0
KCR1 230550Z 35007KT 19/18 A2998 RMK A01 T01870181  RH  096%=      5-min Rain = 0
KCR1 230551Z 35006KT 19/18 A2998 RMK A01 T01850180  RH  096%=      5-min Rain = 0
KCR1 230552Z 36008KT 19/18 A2998 RMK A01 T01850179  RH  097%=      5-min Rain = 0
KCR1 230553Z 00008KT 18/18 A2998 RMK A01 T01840178  RH  097%=      5-min Rain = 0
KCR1 230554Z 01007KT 18/18 A2998 RMK A01 T01820176  RH  096%=      5-min Rain = 0
KCR1 230555Z 01006KT 18/18 A2999 RMK A01 T01820176  RH  096%=      5-min Rain = 0
KCR1 230556Z 01007KT 18/18 A2999 RMK A01 T01810175  RH  096%=      5-min Rain = 0
KCR1 230557Z 00005KT 18/18 A2999 RMK A01 T01810175  RH  096%=      5-min Rain = 0
KCR1 230558Z 00005KT 18/18 A2999 RMK A01 T01810175  RH  097%=      5-min Rain = 0
KCR1 230559Z 00007KT 18/18 A2999 RMK A01 T01800175  RH  097%=      5-min Rain = 0
KCR1 230600Z 00005KT 18/18 A2999 RMK A01 T01800175  RH  097%=      5-min Rain = 0
KCR1 230601Z 00005KT 18/18 A2999 RMK A01 T01810175  RH  097%=      5-min Rain = 0
KCR1 230602Z 00006KT 18/18 A2999 RMK A01 T01800175  RH  097%=      5-min Rain = 0
KCR1 230603Z 00005KT 18/17 A2999 RMK A01 T01800174  RH  097%=      5-min Rain = 0
KCR1 230604Z 00006KT 18/17 A2999 RMK A01 T01800174  RH  097%=      5-min Rain = 0
KCR1 230605Z 01006KT 18/17 A2999 RMK A01 T01800174  RH  096%=      5-min Rain = 0
KCR1 230606Z 01004KT 18/17 A2999 RMK A01 T01800174  RH  096%=      5-min Rain = 0
KCR1 230607Z 02004KT 18/17 A2999 RMK A01 T01800174  RH  096%=      5-min Rain = 0
KCR1 230608Z 02004KT 18/17 A2999 RMK A01 T01800174  RH  097%=      5-min Rain = 0
KCR1 230609Z 02005KT 18/17 A2999 RMK A01 T01800174  RH  097%=      5-min Rain = 0
KCR1 230610Z 02005KT 18/17 A2999 RMK A01 T01800174  RH  097%=      5-min Rain = 0
KCR1 230611Z 02006KT 18/17 A2999 RMK A01 T01800174  RH  096%=      5-min Rain = 0
KCR1 230612Z 02005KT 18/17 A2999 RMK A01 T01800174  RH  096%=      5-min Rain = 0
KCR1 230613Z 02004KT 18/17 A2999 RMK A01 T01800174  RH  096%=      5-min Rain = 0
KCR1 230614Z 02003KT 18/17 A2999 RMK A01 T01800174  RH  096%=      5-min Rain = 0
KCR1 230615Z 01003KT 18/17 A2999 RMK A01 T01800174  RH  097%=      5-min Rain = 0
KCR1 230616Z 36005KT 18/17 A2999 RMK A01 T01790174  RH  096%=      5-min Rain = 0
KCR1 230617Z 35005KT 18/17 A2999 RMK A01 T01790173  RH  096%=      5-min Rain = 0
KCR1 230618Z 35006KT 18/17 A2999 RMK A01 T01780172  RH  096%=      5-min Rain = 0
KCR1 230619Z 35006KT 18/17 A2999 RMK A01 T01770171  RH  096%=      5-min Rain = 0
KCR1 230620Z 35006KT 18/17 A2999 RMK A01 T01760170  RH  096%=      5-min Rain = 0
KCR1 230621Z 35007KT 17/17 A2999 RMK A01 T01740168  RH  096%=      5-min Rain = 0
KCR1 230622Z 34005KT 17/17 A2999 RMK A01 T01740167  RH  096%=      5-min Rain = 0
KCR1 230623Z 34006KT 17/17 A2999 RMK A01 T01730168  RH  096%=      5-min Rain = 0
KCR1 230624Z 34007KT 17/17 A2998 RMK A01 T01730168  RH  097%=      5-min Rain = 0
KCR1 230625Z 35006KT 17/17 A2999 RMK A01 T01720167  RH  097%=      5-min Rain = 0
KCR1 230626Z 35006KT 17/17 A2999 RMK A01 T01720167  RH  097%=      5-min Rain = 0
KCR1 230627Z 01006KT 17/17 A2999 RMK A01 T01710166  RH  097%=      5-min Rain = 0
KCR1 230628Z 36006KT 17/17 A2998 RMK A01 T01710166  RH  097%=      5-min Rain = 0
KCR1 230629Z 00005KT 17/17 A2998 RMK A01 T01710167  RH  097%=      5-min Rain = 0
KCR1 230630Z 36004KT 17/17 A2999 RMK A01 T01710167  RH  097%=      5-min Rain = 0
KCR1 230631Z 35004KT 17/17 A2999 RMK A01 T01710167  RH  097%=      5-min Rain = 0
KCR1 230632Z 00005KT 17/17 A2999 RMK A01 T01710167  RH  097%=      5-min Rain = 0
KCR1 230633Z 00004KT 17/17 A2999 RMK A01 T01710167  RH  097%=      5-min Rain = 0
KCR1 230634Z 01006KT 17/17 A2998 RMK A01 T01710167  RH  097%=      5-min Rain = 0
KCR1 230635Z 01004KT 17/17 A2999 RMK A01 T01710167  RH  097%=      5-min Rain = 0
KCR1 230636Z 02005KT 17/17 A2999 RMK A01 T01710167  RH  097%=      5-min Rain = 0
KCR1 230637Z 01004KT 17/17 A2999 RMK A01 T01710167  RH  097%=      5-min Rain = 0
KCR1 230638Z 01005KT 17/17 A2999 RMK A01 T01710167  RH  097%=      5-min Rain = 0
KCR1 230639Z 01004KT 17/17 A2999 RMK A01 T01720167  RH  097%=      5-min Rain = 0
KCR1 230640Z 02003KT 17/17 A2999 RMK A01 T01720167  RH  097%=      5-min Rain = 0
KCR1 230641Z 03002KT 17/17 A2999 RMK A01 T01720167  RH  097%=      5-min Rain = 0
KCR1 230642Z 03002KT 17/17 A2998 RMK A01 T01720167  RH  097%=      5-min Rain = 0
KCR1 230643Z 01003KT 17/17 A2998 RMK A01 T01720168  RH  097%=      5-min Rain = 0
KCR1 230644Z 01002KT 17/17 A2998 RMK A01 T01720168  RH  097%=      5-min Rain = 0
KCR1 230645Z 02002KT 17/17 A2998 RMK A01 T01720168  RH  097%=      5-min Rain = 0
KCR1 230646Z 02002KT 17/17 A2998 RMK A01 T01730169  RH  097%=      5-min Rain = 0
KCR1 230647Z 06003KT 17/17 A2998 RMK A01 T01730169  RH  097%=      5-min Rain = 0
KCR1 230648Z 05002KT 17/17 A2998 RMK A01 T01740170  RH  097%=      5-min Rain = 0
KCR1 230649Z 01003KT 18/17 A2998 RMK A01 T01750170  RH  097%=      5-min Rain = 0
KCR1 230650Z 01002KT 18/17 A2998 RMK A01 T01750170  RH  097%=      5-min Rain = 0
KCR1 230651Z 36002KT 18/17 A2998 RMK A01 T01760170  RH  096%=      5-min Rain = 0
KCR1 230652Z 01003KT 18/17 A2998 RMK A01 T01760169  RH  096%=      5-min Rain = 0
KCR1 230653Z 00003KT 18/17 A2998 RMK A01 T01760169  RH  096%=      5-min Rain = 0
KCR1 230654Z 34003KT 18/17 A2998 RMK A01 T01760170  RH  096%=      5-min Rain = 0
KCR1 230655Z 33004KT 18/17 A2998 RMK A01 T01760170  RH  096%=      5-min Rain = 0
KCR1 230656Z 33005KT 18/17 A2998 RMK A01 T01760170  RH  096%=      5-min Rain = 0
KCR1 230657Z 32005KT 18/17 A2998 RMK A01 T01750169  RH  096%=      5-min Rain = 0
KCR1 230658Z 32005KT 17/17 A2998 RMK A01 T01740169  RH  096%=      5-min Rain = 0
KCR1 230659Z 31006KT 17/17 A2998 RMK A01 T01740168  RH  097%=      5-min Rain = 0
KCR1 230700Z 30008KT 17/17 A2999 RMK A01 T01730168  RH  097%=      5-min Rain = 0
KCR1 230701Z 29010KT 17/17 A2999 RMK A01 T01730168  RH  097%=      5-min Rain = 0
KCR1 230702Z 29013KT 17/17 A2999 RMK A01 T01730168  RH  097%=      5-min Rain = 0
KCR1 230703Z 29010G17KT 17/17 A2999 RMK A01 T01720167  RH  097%=      5-min Rain = 0
KCR1 230704Z 30015KT 17/17 A2999 RMK A01 T01710166  RH  097%=      5-min Rain = 0
KCR1 230705Z 29017KT 17/16 A2999 RMK A01 T01700164  RH  097%=      5-min Rain = 0
KCR1 230706Z 29013KT 17/16 A30 RMK A01 T01700163  RH  096%=      5-min Rain = 0
KCR1 230707Z 32008KT 17/16 A30 RMK A01 T01700162  RH  095%=      5-min Rain = 0
KCR1 230708Z 34006KT 17/16 A30 RMK A01 T01700159  RH  094%=      5-min Rain = 0
KCR1 230709Z 32007KT 17/16 A30 RMK A01 T01710159  RH  093%=      5-min Rain = 0
KCR1 230710Z 29007KT 17/16 A30 RMK A01 T01720160  RH  093%=      5-min Rain = 0
KCR1 230711Z 30006KT 17/16 A30 RMK A01 T01720160  RH  093%=      5-min Rain = 0
KCR1 230712Z 30005KT 17/16 A30 RMK A01 T01720160  RH  093%=      5-min Rain = 0
KCR1 230713Z 30005KT 17/16 A30 RMK A01 T01710160  RH  093%=      5-min Rain = 0
KCR1 230714Z 31006KT 17/16 A2999 RMK A01 T01720160  RH  093%=      5-min Rain = 0
KCR1 230715Z 31006KT 17/16 A2999 RMK A01 T01710161  RH  093%=      5-min Rain = 0
KCR1 230716Z 31012KT 17/16 A2999 RMK A01 T01710161  RH  094%=      5-min Rain = 0
KCR1 230717Z 31012KT 17/16 A2999 RMK A01 T01710160  RH  094%=      5-min Rain = 0
KCR1 230718Z 32011KT 17/16 A2999 RMK A01 T01710159  RH  093%=      5-min Rain = 0
KCR1 230719Z 31011KT 17/16 A2999 RMK A01 T01710158  RH  093%=      5-min Rain = 0
KCR1 230720Z 30012KT 17/16 A2999 RMK A01 T01700158  RH  092%=      5-min Rain = 0
KCR1 230721Z 31012KT 17/16 A2999 RMK A01 T01700157  RH  092%=      5-min Rain = 0
KCR1 230722Z 31014KT 17/16 A2999 RMK A01 T01700157  RH  092%=      5-min Rain = 0
KCR1 230723Z 31015KT 17/16 A2999 RMK A01 T01700156  RH  091%=      5-min Rain = 0
KCR1 230724Z 31014KT 17/16 A2999 RMK A01 T01700155  RH  091%=      5-min Rain = 0
KCR1 230725Z 32013KT 17/16 A2999 RMK A01 T01700156  RH  092%=      5-min Rain = 0
KCR1 230726Z 32013KT 17/16 A2999 RMK A01 T01690156  RH  092%=      5-min Rain = 0
KCR1 230727Z 32013KT 17/16 A2999 RMK A01 T01690155  RH  092%=      5-min Rain = 0
KCR1 230728Z 32013KT 17/16 A2999 RMK A01 T01690155  RH  092%=      5-min Rain = 0.01
KCR1 230729Z 33011KT 17/16 A2999 RMK A01 T01680156  RH  092%=      5-min Rain = 0
KCR1 230730Z 33011KT 17/16 A2999 RMK A01 T01680156  RH  093%=      5-min Rain = 0.01
KCR1 230731Z 32013KT 17/16 A2999 RMK A01 T01670156  RH  093%=      5-min Rain = 0
KCR1 230732Z 32014KT 17/16 A2999 RMK A01 T01670157  RH  093%=      5-min Rain = 0
KCR1 230733Z 33012KT 17/16 A2999 RMK A01 T01670156  RH  093%=      5-min Rain = 0
KCR1 230734Z 34013KT 17/16 A2999 RMK A01 T01670157  RH  094%=      5-min Rain = 0
KCR1 230735Z 34013KT 17/16 A2999 RMK A01 T01670157  RH  094%=      5-min Rain = 0
KCR1 230736Z 34011KT 17/16 A2999 RMK A01 T01670157  RH  094%=      5-min Rain = 0
KCR1 230737Z 35014KT 17/16 A2999 RMK A01 T01670157  RH  094%=      5-min Rain = 0
KCR1 230738Z 35012KT 17/16 A2999 RMK A01 T01670157  RH  094%=      5-min Rain = 0
KCR1 230739Z 36012KT 17/16 A2999 RMK A01 T01670158  RH  094%=      5-min Rain = 0
KCR1 230740Z 35013KT 17/16 A2999 RMK A01 T01670156  RH  093%=      5-min Rain = 0
KCR1 230741Z 35012KT 17/16 A2999 RMK A01 T01680156  RH  093%=      5-min Rain = 0
KCR1 230742Z 35010KT 17/16 A2999 RMK A01 T01680156  RH  093%=      5-min Rain = 0
KCR1 230743Z 36010KT 17/16 A2999 RMK A01 T01680156  RH  093%=      5-min Rain = 0
KCR1 230744Z 00015KT 17/16 A2999 RMK A01 T01680155  RH  092%=      5-min Rain = 0
KCR1 230745Z 35012G18KT 17/15 A2999 RMK A01 T01680154  RH  092%=      5-min Rain = 0
KCR1 230746Z 35012KT 17/16 A2999 RMK A01 T01680155  RH  092%=      5-min Rain = 0
KCR1 230747Z 00011KT 17/16 A2999 RMK A01 T01680155  RH  092%=      5-min Rain = 0
KCR1 230748Z 01013KT 17/16 A2999 RMK A01 T01670155  RH  093%=      5-min Rain = 0
KCR1 230749Z 02013KT 17/16 A2999 RMK A01 T01670156  RH  093%=      5-min Rain = 0
KCR1 230750Z 01015KT 17/16 A2999 RMK A01 T01670156  RH  093%=      5-min Rain = 0
KCR1 230751Z 02015KT 17/16 A2999 RMK A01 T01670155  RH  092%=      5-min Rain = 0
KCR1 230752Z 02017KT 17/16 A2999 RMK A01 T01670155  RH  092%=      5-min Rain = 0
KCR1 230753Z 01015KT 17/15 A2999 RMK A01 T01670154  RH  092%=      5-min Rain = 0
KCR1 230754Z 02015G21KT 17/16 A2999 RMK A01 T01670155  RH  092%=      5-min Rain = 0
KCR1 230755Z 01017KT 17/15 A2999 RMK A01 T01670154  RH  092%=      5-min Rain = 0
KCR1 230756Z 01018KT 17/15 A2999 RMK A01 T01670154  RH  092%=      5-min Rain = 0
KCR1 230757Z 01015KT 17/15 A2999 RMK A01 T01660154  RH  093%=      5-min Rain = 0
KCR1 230758Z 01017KT 17/15 A2999 RMK A01 T01650154  RH  093%=      5-min Rain = 0
KCR1 230759Z 02016KT 17/15 A2999 RMK A01 T01650154  RH  093%=      5-min Rain = 0
KCR1 230800Z 02014KT 16/15 A2999 RMK A01 T01640154  RH  094%=      5-min Rain = 0
KCR1 230801Z 02018G25KT 16/15 A2999 RMK A01 T01630153  RH  094%=      5-min Rain = 0.01
KCR1 230802Z 02019G24KT 16/15 A2999 RMK A01 T01620152  RH  094%=      5-min Rain = 0
KCR1 230803Z 02018G24KT 16/15 A2999 RMK A01 T01610151  RH  094%=      5-min Rain = 0
KCR1 230804Z 02019G24KT 16/15 A2999 RMK A01 T01610151  RH  094%=      5-min Rain = 0
KCR1 230805Z 02019KT 16/15 A2999 RMK A01 T01600149  RH  093%=      5-min Rain = 0
KCR1 230806Z 02016KT 16/15 A2998 RMK A01 T01590147  RH  093%=      5-min Rain = 0
KCR1 230807Z 02019KT 16/15 A2998 RMK A01 T01590147  RH  093%=      5-min Rain = 0
KCR1 230808Z 02016G21KT 16/15 A2998 RMK A01 T01580146  RH  092%=      5-min Rain = 0
KCR1 230809Z 02015G20KT 16/15 A2998 RMK A01 T01580146  RH  093%=      5-min Rain = 0
KCR1 230810Z 02014KT 16/15 A2998 RMK A01 T01570146  RH  093%=      5-min Rain = 0
KCR1 230811Z 02016KT 16/15 A2998 RMK A01 T01570146  RH  093%=      5-min Rain = 0
KCR1 230812Z 02016KT 16/15 A2998 RMK A01 T01570145  RH  093%=      5-min Rain = 0
KCR1 230813Z 02015G20KT 16/15 A2998 RMK A01 T01560145  RH  093%=      5-min Rain = 0
KCR1 230814Z 02015KT 16/14 A2998 RMK A01 T01560144  RH  093%=      5-min Rain = 0
KCR1 230815Z 02016KT 16/14 A2998 RMK A01 T01560143  RH  092%=      5-min Rain = 0
KCR1 230816Z 02017KT 16/14 A2998 RMK A01 T01560143  RH  092%=      5-min Rain = 0
KCR1 230817Z 02016KT 16/14 A2998 RMK A01 T01560142  RH  092%=      5-min Rain = 0
KCR1 230818Z 02016KT 16/14 A2998 RMK A01 T01560142  RH  091%=      5-min Rain = 0
KCR1 230819Z 02015KT 16/14 A2998 RMK A01 T01560141  RH  091%=      5-min Rain = 0
KCR1 230820Z 03013G18KT 16/14 A2998 RMK A01 T01560142  RH  091%=      5-min Rain = 0
KCR1 230821Z 03015KT 16/14 A2998 RMK A01 T01560143  RH  092%=      5-min Rain = 0
KCR1 230822Z 03014KT 16/14 A2998 RMK A01 T01560143  RH  092%=      5-min Rain = 0
KCR1 230823Z 03015G20KT 16/15 A2998 RMK A01 T01570145  RH  092%=      5-min Rain = 0
KCR1 230824Z 03015KT 16/15 A2997 RMK A01 T01570145  RH  093%=      5-min Rain = 0
KCR1 230825Z 03015KT 16/15 A2997 RMK A01 T01570145  RH  093%=      5-min Rain = 0
KCR1 230826Z 04013KT 16/15 A2997 RMK A01 T01570146  RH  093%=      5-min Rain = 0
KCR1 230827Z 03013KT 16/15 A2997 RMK A01 T01580147  RH  093%=      5-min Rain = 0
KCR1 230828Z 03012KT 16/15 A2998 RMK A01 T01580148  RH  094%=      5-min Rain = 0
KCR1 230829Z 03011KT 16/15 A2998 RMK A01 T01580148  RH  094%=      5-min Rain = 0
KCR1 230830Z 02012KT 16/15 A2998 RMK A01 T01580148  RH  094%=      5-min Rain = 0
KCR1 230831Z 03012KT 16/15 A2998 RMK A01 T01580149  RH  094%=      5-min Rain = 0
KCR1 230832Z 02014KT 16/15 A2998 RMK A01 T01580148  RH  094%=      5-min Rain = 0
KCR1 230833Z 03012G17KT 16/15 A2998 RMK A01 T01580148  RH  094%=      5-min Rain = 0
KCR1 230834Z 02012KT 16/15 A2998 RMK A01 T01590149  RH  094%=      5-min Rain = 0
KCR1 230835Z 03013KT 16/15 A2998 RMK A01 T01590148  RH  093%=      5-min Rain = 0
KCR1 230836Z 02013KT 16/15 A2998 RMK A01 T01590148  RH  093%=      5-min Rain = 0
KCR1 230837Z 02012KT 16/15 A2998 RMK A01 T01590149  RH  093%=      5-min Rain = 0
KCR1 230838Z 02012KT 16/15 A2998 RMK A01 T01590149  RH  094%=      5-min Rain = 0
KCR1 230839Z 02013KT 16/15 A2998 RMK A01 T01590150  RH  094%=      5-min Rain = 0
KCR1 230840Z 02014KT 16/15 A2998 RMK A01 T01590150  RH  094%=      5-min Rain = 0
KCR1 230841Z 02013KT 16/15 A2998 RMK A01 T01590150  RH  094%=      5-min Rain = 0
KCR1 230842Z 02014KT 16/15 A2998 RMK A01 T01590150  RH  094%=      5-min Rain = 0
KCR1 230843Z 02011KT 16/15 A2998 RMK A01 T01590150  RH  095%=      5-min Rain = 0
KCR1 230844Z 02012KT 16/15 A2998 RMK A01 T01590151  RH  095%=      5-min Rain = 0
KCR1 230845Z 02011KT 16/15 A2998 RMK A01 T01580151  RH  095%=      5-min Rain = 0
KCR1 230846Z 02012KT 16/15 A2998 RMK A01 T01580151  RH  095%=      5-min Rain = 0
KCR1 230847Z 02013KT 16/15 A2998 RMK A01 T01580151  RH  095%=      5-min Rain = 0
KCR1 230848Z 02013KT 16/15 A2998 RMK A01 T01580150  RH  095%=      5-min Rain = 0
KCR1 230849Z 02013KT 16/15 A2998 RMK A01 T01580150  RH  095%=      5-min Rain = 0
KCR1 230850Z 02014KT 16/15 A2998 RMK A01 T01570149  RH  095%=      5-min Rain = 0
KCR1 230851Z 02015KT 16/15 A2999 RMK A01 T01570148  RH  094%=      5-min Rain = 0
KCR1 230852Z 02013KT 16/15 A2999 RMK A01 T01570147  RH  094%=      5-min Rain = 0
KCR1 230853Z 01012KT 16/15 A2999 RMK A01 T01560147  RH  094%=      5-min Rain = 0
KCR1 230854Z 00012KT 16/15 A2999 RMK A01 T01560147  RH  094%=      5-min Rain = 0
KCR1 230855Z 00012KT 16/15 A2999 RMK A01 T01560147  RH  094%=      5-min Rain = 0
KCR1 230856Z 01013KT 16/15 A2999 RMK A01 T01560147  RH  094%=      5-min Rain = 0
KCR1 230857Z 01014KT 16/15 A2999 RMK A01 T01560146  RH  094%=      5-min Rain = 0
KCR1 230858Z 02013KT 16/15 A2999 RMK A01 T01550146  RH  094%=      5-min Rain = 0
KCR1 230859Z 02012KT 15/15 A2999 RMK A01 T01540145  RH  094%=      5-min Rain = 0
KCR1 230900Z 02013KT 16/15 A2999 RMK A01 T01550146  RH  094%=      5-min Rain = 0
KCR1 230901Z 02013KT 16/15 A2998 RMK A01 T01550146  RH  094%=      5-min Rain = 0
KCR1 230902Z 03014KT 15/15 A2998 RMK A01 T01540145  RH  094%=      5-min Rain = 0
KCR1 230903Z 03014KT 15/15 A2998 RMK A01 T01540145  RH  094%=      5-min Rain = 0
KCR1 230904Z 03012KT 15/15 A2998 RMK A01 T01540145  RH  095%=      5-min Rain = 0
KCR1 230905Z 03013KT 15/15 A2998 RMK A01 T01540146  RH  095%=      5-min Rain = 0
KCR1 230906Z 03014KT 15/15 A2998 RMK A01 T01540146  RH  095%=      5-min Rain = 0
KCR1 230907Z 04014KT 15/15 A2998 RMK A01 T01540146  RH  095%=      5-min Rain = 0
KCR1 230908Z 03013KT 15/15 A2998 RMK A01 T01540146  RH  095%=      5-min Rain = 0
KCR1 230909Z 03012KT 15/15 A2998 RMK A01 T01540146  RH  095%=      5-min Rain = 0
KCR1 230910Z 03012KT 15/15 A2998 RMK A01 T01540147  RH  096%=      5-min Rain = 0
KCR1 230911Z 03012KT 15/15 A2998 RMK A01 T01540147  RH  096%=      5-min Rain = 0
KCR1 230912Z 03012KT 15/15 A2998 RMK A01 T01540148  RH  096%=      5-min Rain = 0
KCR1 230913Z 02013KT 15/15 A2998 RMK A01 T01540147  RH  096%=      5-min Rain = 0
KCR1 230914Z 02013KT 15/15 A2998 RMK A01 T01540148  RH  096%=      5-min Rain = 0
KCR1 230915Z 03014KT 15/15 A2998 RMK A01 T01540148  RH  096%=      5-min Rain = 0
KCR1 230916Z 03013KT 15/15 A2998 RMK A01 T01540147  RH  096%=      5-min Rain = 0
KCR1 230917Z 03014KT 15/15 A2998 RMK A01 T01540147  RH  096%=      5-min Rain = 0
KCR1 230918Z 03013G18KT 15/15 A2998 RMK A01 T01540148  RH  096%=      5-min Rain = 0
KCR1 230919Z 03012KT 16/15 A2998 RMK A01 T01550148  RH  096%=      5-min Rain = 0
KCR1 230920Z 04015KT 16/15 A2998 RMK A01 T01550149  RH  096%=      5-min Rain = 0
KCR1 230921Z 04015KT 15/15 A2998 RMK A01 T01540149  RH  096%=      5-min Rain = 0
KCR1 230922Z 03014KT 16/15 A2998 RMK A01 T01550149  RH  096%=      5-min Rain = 0
KCR1 230923Z 03015KT 16/15 A2998 RMK A01 T01550149  RH  096%=      5-min Rain = 0
KCR1 230924Z 03014KT 16/15 A2998 RMK A01 T01550149  RH  096%=      5-min Rain = 0
KCR1 230925Z 03014KT 16/15 A2998 RMK A01 T01550149  RH  096%=      5-min Rain = 0
KCR1 230926Z 04014KT 16/15 A2998 RMK A01 T01550149  RH  096%=      5-min Rain = 0
KCR1 230927Z 03014KT 16/15 A2998 RMK A01 T01550149  RH  096%=      5-min Rain = 0
KCR1 230928Z 03012KT 16/15 A2998 RMK A01 T01560150  RH  096%=      5-min Rain = 0
KCR1 230929Z 03012KT 16/15 A2998 RMK A01 T01560150  RH  096%=      5-min Rain = 0
KCR1 230930Z 03012KT 16/15 A2998 RMK A01 T01550150  RH  096%=      5-min Rain = 0
KCR1 230931Z 03015KT 16/15 A2998 RMK A01 T01560150  RH  096%=      5-min Rain = 0
KCR1 230932Z 04014KT 16/15 A2998 RMK A01 T01560150  RH  096%=      5-min Rain = 0
KCR1 230933Z 04012KT 16/15 A2998 RMK A01 T01560150  RH  096%=      5-min Rain = 0
KCR1 230934Z 04013KT 16/15 A2998 RMK A01 T01550150  RH  096%=      5-min Rain = 0
KCR1 230935Z 04014G19KT 16/15 A2998 RMK A01 T01550149  RH  096%=      5-min Rain = 0
KCR1 230936Z 04015KT 16/15 A2998 RMK A01 T01560150  RH  096%=      5-min Rain = 0
KCR1 230937Z 04013KT 16/15 A2998 RMK A01 T01560150  RH  096%=      5-min Rain = 0
KCR1 230938Z 04014KT 16/15 A2998 RMK A01 T01560150  RH  096%=      5-min Rain = 0
KCR1 230939Z 04014KT 16/15 A2998 RMK A01 T01560150  RH  096%=      5-min Rain = 0
KCR1 230940Z 04013KT 16/15 A2998 RMK A01 T01560150  RH  096%=      5-min Rain = 0
KCR1 230941Z 04014KT 16/15 A2998 RMK A01 T01560150  RH  096%=      5-min Rain = 0
KCR1 230942Z 04014KT 16/15 A2998 RMK A01 T01560149  RH  096%=      5-min Rain = 0
KCR1 230943Z 04012KT 16/15 A2998 RMK A01 T01560149  RH  096%=      5-min Rain = 0
KCR1 230944Z 04013KT 16/15 A2998 RMK A01 T01560149  RH  096%=      5-min Rain = 0
KCR1 230945Z 04014KT 16/15 A2998 RMK A01 T01560149  RH  095%=      5-min Rain = 0
KCR1 230946Z 04012KT 16/15 A2998 RMK A01 T01560149  RH  095%=      5-min Rain = 0
KCR1 230947Z 04011KT 16/15 A2998 RMK A01 T01560149  RH  095%=      5-min Rain = 0
KCR1 230948Z 04010KT 16/15 A2998 RMK A01 T01560149  RH  095%=      5-min Rain = 0
KCR1 230949Z 05009KT 16/15 A2998 RMK A01 T01560149  RH  096%=      5-min Rain = 0
KCR1 230950Z 04013KT 16/15 A2998 RMK A01 T01560149  RH  096%=      5-min Rain = 0
KCR1 230951Z 05012KT 16/15 A2998 RMK A01 T01570149  RH  095%=      5-min Rain = 0
KCR1 230952Z 04012KT 16/15 A2998 RMK A01 T01560149  RH  095%=      5-min Rain = 0
KCR1 230953Z 04011KT 16/15 A2998 RMK A01 T01570149  RH  095%=      5-min Rain = 0
KCR1 230954Z 04013KT 16/15 A2998 RMK A01 T01570149  RH  095%=      5-min Rain = 0
KCR1 230955Z 04013G19KT 16/15 A2998 RMK A01 T01570149  RH  095%=      5-min Rain = 0
KCR1 230956Z 05013KT 16/15 A2998 RMK A01 T01570148  RH  095%=      5-min Rain = 0
KCR1 230957Z 04010KT 16/15 A2998 RMK A01 T01570148  RH  094%=      5-min Rain = 0
KCR1 230958Z 05011KT 16/15 A2998 RMK A01 T01570148  RH  094%=      5-min Rain = 0
KCR1 230959Z 05011KT 16/15 A2998 RMK A01 T01570149  RH  095%=      5-min Rain = 0
KCR1 231000Z 04011KT 16/15 A2998 RMK A01 T01570149  RH  095%=      5-min Rain = 0
KCR1 231001Z 04013KT 16/15 A2998 RMK A01 T01570149  RH  095%=      5-min Rain = 0
KCR1 231002Z 04011KT 16/15 A2998 RMK A01 T01570149  RH  095%=      5-min Rain = 0
KCR1 231003Z 05014KT 16/15 A2998 RMK A01 T01570149  RH  095%=      5-min Rain = 0
KCR1 231004Z 05013KT 16/15 A2998 RMK A01 T01570148  RH  094%=      5-min Rain = 0
KCR1 231005Z 04012KT 16/15 A2998 RMK A01 T01570148  RH  094%=      5-min Rain = 0
KCR1 231006Z 04012KT 16/15 A2998 RMK A01 T01570148  RH  094%=      5-min Rain = 0
KCR1 231007Z 05014KT 16/15 A2997 RMK A01 T01580149  RH  094%=      5-min Rain = 0
KCR1 231008Z 05013KT 16/15 A2997 RMK A01 T01570147  RH  094%=      5-min Rain = 0
KCR1 231009Z 04014KT 16/15 A2998 RMK A01 T01570147  RH  094%=      5-min Rain = 0
KCR1 231010Z 05014KT 16/15 A2998 RMK A01 T01570148  RH  094%=      5-min Rain = 0
KCR1 231011Z 05013KT 16/15 A2998 RMK A01 T01580148  RH  094%=      5-min Rain = 0
KCR1 231012Z 05013KT 16/15 A2998 RMK A01 T01570148  RH  094%=      5-min Rain = 0
KCR1 231013Z 04013KT 16/15 A2998 RMK A01 T01570148  RH  094%=      5-min Rain = 0
KCR1 231014Z 05014KT 16/15 A2997 RMK A01 T01570148  RH  094%=      5-min Rain = 0
KCR1 231015Z 05012KT 16/15 A2997 RMK A01 T01570148  RH  094%=      5-min Rain = 0
KCR1 231016Z 05012KT 16/15 A2997 RMK A01 T01570148  RH  094%=      5-min Rain = 0
KCR1 231017Z 05015KT 16/15 A2997 RMK A01 T01570148  RH  095%=      5-min Rain = 0
KCR1 231018Z 05013KT 16/15 A2997 RMK A01 T01560148  RH  095%=      5-min Rain = 0
KCR1 231019Z 05013KT 16/15 A2997 RMK A01 T01560148  RH  095%=      5-min Rain = 0
KCR1 231020Z 05013KT 16/15 A2997 RMK A01 T01560148  RH  095%=      5-min Rain = 0
KCR1 231021Z 05013KT 16/15 A2997 RMK A01 T01570149  RH  095%=      5-min Rain = 0
KCR1 231022Z 06012KT 16/15 A2997 RMK A01 T01560148  RH  095%=      5-min Rain = 0
KCR1 231023Z 06014KT 16/15 A2998 RMK A01 T01560148  RH  095%=      5-min Rain = 0
KCR1 231024Z 06014G19KT 16/15 A2998 RMK A01 T01560148  RH  095%=      5-min Rain = 0
KCR1 231025Z 06014KT 16/15 A2998 RMK A01 T01560147  RH  094%=      5-min Rain = 0
KCR1 231026Z 06012KT 16/15 A2998 RMK A01 T01570147  RH  094%=      5-min Rain = 0
KCR1 231027Z 06012KT 16/15 A2998 RMK A01 T01560148  RH  095%=      5-min Rain = 0
KCR1 231028Z 06012KT 16/15 A2998 RMK A01 T01560148  RH  095%=      5-min Rain = 0
KCR1 231029Z 06012KT 16/15 A2998 RMK A01 T01560148  RH  095%=      5-min Rain = 0
KCR1 231030Z 06011KT 16/15 A2998 RMK A01 T01560148  RH  095%=      5-min Rain = 0
KCR1 231031Z 05011KT 16/15 A2998 RMK A01 T01560148  RH  095%=      5-min Rain = 0
KCR1 231032Z 05012KT 16/15 A2998 RMK A01 T01560148  RH  095%=      5-min Rain = 0
KCR1 231033Z 06013KT 16/15 A2998 RMK A01 T01560149  RH  095%=      5-min Rain = 0
KCR1 231034Z 05013KT 16/15 A2998 RMK A01 T01560148  RH  095%=      5-min Rain = 0
KCR1 231035Z 05013KT 16/15 A2998 RMK A01 T01560148  RH  095%=      5-min Rain = 0
KCR1 231036Z 05012KT 16/15 A2998 RMK A01 T01560148  RH  095%=      5-min Rain = 0
KCR1 231037Z 06014KT 16/15 A2998 RMK A01 T01560148  RH  095%=      5-min Rain = 0
KCR1 231038Z 06013G18KT 16/15 A2998 RMK A01 T01560149  RH  095%=      5-min Rain = 0
KCR1 231039Z 06013KT 16/15 A2998 RMK A01 T01560149  RH  095%=      5-min Rain = 0
KCR1 231040Z 06014KT 16/15 A2998 RMK A01 T01560149  RH  095%=      5-min Rain = 0
KCR1 231041Z 05015KT 16/15 A2998 RMK A01 T01560149  RH  095%=      5-min Rain = 0
KCR1 231042Z 06013KT 16/15 A2997 RMK A01 T01550148  RH  095%=      5-min Rain = 0
KCR1 231043Z 06013KT 16/15 A2997 RMK A01 T01560149  RH  096%=      5-min Rain = 0
KCR1 231044Z 06014KT 16/15 A2997 RMK A01 T01550149  RH  096%=      5-min Rain = 0
KCR1 231045Z 06015KT 16/15 A2997 RMK A01 T01560149  RH  096%=      5-min Rain = 0
KCR1 231046Z 06015KT 16/15 A2998 RMK A01 T01550148  RH  095%=      5-min Rain = 0
KCR1 231047Z 06017KT 16/15 A2998 RMK A01 T01550148  RH  095%=      5-min Rain = 0
KCR1 231048Z 06017KT 16/15 A2998 RMK A01 T01550147  RH  095%=      5-min Rain = 0
KCR1 231049Z 05016KT 16/15 A2998 RMK A01 T01560147  RH  095%=      5-min Rain = 0
KCR1 231050Z 06016KT 16/15 A2998 RMK A01 T01560147  RH  095%=      5-min Rain = 0
KCR1 231051Z 06014KT 16/15 A2998 RMK A01 T01560147  RH  094%=      5-min Rain = 0
KCR1 231052Z 06014KT 16/15 A2998 RMK A01 T01560147  RH  095%=      5-min Rain = 0
KCR1 231053Z 05014KT 16/15 A2998 RMK A01 T01560147  RH  095%=      5-min Rain = 0
KCR1 231054Z 06013KT 16/15 A2998 RMK A01 T01560148  RH  095%=      5-min Rain = 0
KCR1 231055Z 06012KT 16/15 A2998 RMK A01 T01560148  RH  095%=      5-min Rain = 0
KCR1 231056Z 07013KT 16/15 A2998 RMK A01 T01560148  RH  095%=      5-min Rain = 0
KCR1 231057Z 06014KT 16/15 A2998 RMK A01 T01560148  RH  095%=      5-min Rain = 0
KCR1 231058Z 06014KT 16/15 A2998 RMK A01 T01560148  RH  095%=      5-min Rain = 0
KCR1 231059Z 06015KT 16/15 A2998 RMK A01 T01550148  RH  095%=      5-min Rain = 0
KCR1 231100Z 06010KT 16/15 A2998 RMK A01 T01560148  RH  095%=      5-min Rain = 0
KCR1 231101Z 06012KT 16/15 A2998 RMK A01 T01550148  RH  096%=      5-min Rain = 0
KCR1 231102Z 06012KT 16/15 A2998 RMK A01 T01550148  RH  096%=      5-min Rain = 0
KCR1 231103Z 06014KT 16/15 A2998 RMK A01 T01550148  RH  096%=      5-min Rain = 0
KCR1 231104Z 06013KT 16/15 A2998 RMK A01 T01550148  RH  096%=      5-min Rain = 0
KCR1 231105Z 06011KT 16/15 A2998 RMK A01 T01550148  RH  096%=      5-min Rain = 0
KCR1 231106Z 06015KT 16/15 A2998 RMK A01 T01550149  RH  096%=      5-min Rain = 0
KCR1 231107Z 06014KT 16/15 A2998 RMK A01 T01550148  RH  096%=      5-min Rain = 0
KCR1 231108Z 06012KT 16/15 A2998 RMK A01 T01550148  RH  096%=      5-min Rain = 0
KCR1 231109Z 06014KT 16/15 A2998 RMK A01 T01550148  RH  096%=      5-min Rain = 0
KCR1 231110Z 06015KT 16/15 A2998 RMK A01 T01550148  RH  096%=      5-min Rain = 0
KCR1 231111Z 06014KT 16/15 A2998 RMK A01 T01550148  RH  095%=      5-min Rain = 0
KCR1 231112Z 07013KT 16/15 A2998 RMK A01 T01550148  RH  096%=      5-min Rain = 0
KCR1 231113Z 07012KT 16/15 A2998 RMK A01 T01550148  RH  096%=      5-min Rain = 0
KCR1 231114Z 07013KT 16/15 A2998 RMK A01 T01550148  RH  096%=      5-min Rain = 0
KCR1 231115Z 06015KT 16/15 A2998 RMK A01 T01550148  RH  096%=      5-min Rain = 0
KCR1 231116Z 06011KT 16/15 A2998 RMK A01 T01550148  RH  096%=      5-min Rain = 0
KCR1 231117Z 06015KT 16/15 A2998 RMK A01 T01550148  RH  096%=      5-min Rain = 0
KCR1 231118Z 06014KT 16/15 A2998 RMK A01 T01550148  RH  096%=      5-min Rain = 0
KCR1 231119Z 07014KT 15/15 A2998 RMK A01 T01540148  RH  096%=      5-min Rain = 0
KCR1 231120Z 06013KT 16/15 A2997 RMK A01 T01550148  RH  096%=      5-min Rain = 0
KCR1 231121Z 07016KT 16/15 A2998 RMK A01 T01550148  RH  096%=      5-min Rain = 0
KCR1 231122Z 06014KT 15/15 A2998 RMK A01 T01540148  RH  096%=      5-min Rain = 0
KCR1 231123Z 07011KT 15/15 A2998 RMK A01 T01540147  RH  096%=      5-min Rain = 0
KCR1 231124Z 07012KT 15/15 A2998 RMK A01 T01540148  RH  096%=      5-min Rain = 0
KCR1 231125Z 07012KT 15/15 A2998 RMK A01 T01540147  RH  096%=      5-min Rain = 0
KCR1 231126Z 07012KT 15/15 A2998 RMK A01 T01540147  RH  096%=      5-min Rain = 0
KCR1 231127Z 07013KT 15/15 A2999 RMK A01 T01540147  RH  096%=      5-min Rain = 0
KCR1 231128Z 07010G15KT 15/15 A2999 RMK A01 T01540147  RH  095%=      5-min Rain = 0
KCR1 231129Z 07012KT 15/15 A2999 RMK A01 T01540147  RH  095%=      5-min Rain = 0
KCR1 231130Z 07014KT 15/15 A2999 RMK A01 T01540147  RH  095%=      5-min Rain = 0
KCR1 231131Z 07012KT 15/15 A2999 RMK A01 T01540146  RH  095%=      5-min Rain = 0
KCR1 231132Z 06011KT 15/15 A2998 RMK A01 T01540146  RH  095%=      5-min Rain = 0
KCR1 231133Z 07012KT 15/15 A2998 RMK A01 T01540146  RH  095%=      5-min Rain = 0
KCR1 231134Z 06014KT 15/15 A2998 RMK A01 T01540147  RH  095%=      5-min Rain = 0
KCR1 231135Z 07013KT 15/15 A2998 RMK A01 T01540146  RH  095%=      5-min Rain = 0
KCR1 231136Z 07011KT 15/15 A2998 RMK A01 T01540146  RH  095%=      5-min Rain = 0
KCR1 231137Z 07014KT 15/15 A2998 RMK A01 T01540146  RH  095%=      5-min Rain = 0
KCR1 231138Z 07013KT 15/15 A2998 RMK A01 T01540146  RH  095%=      5-min Rain = 0
KCR1 231139Z 07012KT 15/15 A2998 RMK A01 T01540146  RH  095%=      5-min Rain = 0
KCR1 231140Z 07013KT 15/15 A2998 RMK A01 T01540147  RH  095%=      5-min Rain = 0
KCR1 231141Z 08011KT 15/15 A2998 RMK A01 T01540147  RH  095%=      5-min Rain = 0
KCR1 231142Z 07013KT 15/15 A2999 RMK A01 T01540147  RH  095%=      5-min Rain = 0
KCR1 231143Z 07013KT 15/15 A2999 RMK A01 T01540146  RH  095%=      5-min Rain = 0
KCR1 231144Z 07012KT 15/15 A2999 RMK A01 T01540147  RH  095%=      5-min Rain = 0
KCR1 231145Z 08010KT 15/15 A2999 RMK A01 T01540147  RH  095%=      5-min Rain = 0
KCR1 231146Z 08012KT 15/15 A2999 RMK A01 T01540147  RH  095%=      5-min Rain = 0
KCR1 231147Z 08012KT 15/15 A2999 RMK A01 T01540146  RH  095%=      5-min Rain = 0
KCR1 231148Z 08012KT 15/15 A2999 RMK A01 T01540146  RH  095%=      5-min Rain = 0
KCR1 231149Z 08011KT 15/15 A2999 RMK A01 T01540146  RH  095%=      5-min Rain = 0
KCR1 231150Z 08012KT 15/15 A2999 RMK A01 T01540147  RH  095%=      5-min Rain = 0
KCR1 231151Z 08012KT 15/15 A2999 RMK A01 T01540147  RH  095%=      5-min Rain = 0
KCR1 231152Z 08011KT 15/15 A2999 RMK A01 T01540147  RH  095%=      5-min Rain = 0
KCR1 231153Z 08013KT 15/15 A30 RMK A01 T01540147  RH  096%=      5-min Rain = 0
KCR1 231154Z 08012KT 15/15 A30 RMK A01 T01540147  RH  096%=      5-min Rain = 0
KCR1 231155Z 08013KT 15/15 A30 RMK A01 T01540147  RH  096%=      5-min Rain = 0
KCR1 231156Z 08011KT 15/15 A30 RMK A01 T01540147  RH  096%=      5-min Rain = 0
KCR1 231157Z 08010KT 15/15 A30 RMK A01 T01540147  RH  096%=      5-min Rain = 0
KCR1 231158Z 08011KT 15/15 A30 RMK A01 T01530147  RH  096%=      5-min Rain = 0
KCR1 231159Z 08011KT 15/15 A30 RMK A01 T01530147  RH  096%=      5-min Rain = 0
KCR1 231200Z 08011KT 15/15 A30 RMK A01 T01530147  RH  096%=      5-min Rain = 0
KCR1 231201Z 08010KT 15/15 A30 RMK A01 T01530147  RH  096%=      5-min Rain = 0
KCR1 231202Z 09010KT 15/15 A30 RMK A01 T01530147  RH  096%=      5-min Rain = 0
KCR1 231203Z 09012KT 15/15 A30 RMK A01 T01530147  RH  096%=      5-min Rain = 0
KCR1 231204Z 08010KT 15/15 A30 RMK A01 T01530147  RH  096%=      5-min Rain = 0
KCR1 231205Z 08011KT 15/15 A30 RMK A01 T01530147  RH  096%=      5-min Rain = 0
KCR1 231206Z 08010KT 15/15 A30 RMK A01 T01530148  RH  097%=      5-min Rain = 0
KCR1 231207Z 09012KT 15/15 A30 RMK A01 T01530147  RH  097%=      5-min Rain = 0
KCR1 231208Z 08009KT 15/15 A30 RMK A01 T01530147  RH  097%=      5-min Rain = 0
KCR1 231209Z 09009KT 15/15 A3001 RMK A01 T01530147  RH  097%=      5-min Rain = 0
KCR1 231210Z 08009KT 15/15 A3001 RMK A01 T01530148  RH  097%=      5-min Rain = 0
KCR1 231211Z 09010KT 15/15 A3001 RMK A01 T01520147  RH  097%=      5-min Rain = 0
KCR1 231212Z 08010KT 15/15 A3001 RMK A01 T01520147  RH  097%=      5-min Rain = 0
KCR1 231213Z 09010KT 15/15 A3001 RMK A01 T01520147  RH  097%=      5-min Rain = 0
KCR1 231214Z 09010KT 15/15 A3001 RMK A01 T01520147  RH  097%=      5-min Rain = 0
KCR1 231215Z 08009KT 15/15 A3001 RMK A01 T01520147  RH  097%=      5-min Rain = 0
KCR1 231216Z 09008KT 15/15 A3001 RMK A01 T01520148  RH  097%=      5-min Rain = 0
KCR1 231217Z 09007KT 15/15 A3002 RMK A01 T01520148  RH  097%=      5-min Rain = 0
KCR1 231218Z 08008KT 15/15 A3002 RMK A01 T01520148  RH  097%=      5-min Rain = 0
KCR1 231219Z 08008KT 15/15 A3002 RMK A01 T01520148  RH  097%=      5-min Rain = 0
KCR1 231220Z 08008KT 15/15 A3002 RMK A01 T01520148  RH  097%=      5-min Rain = 0
KCR1 231221Z 08009KT 15/15 A3002 RMK A01 T01520148  RH  097%=      5-min Rain = 0
KCR1 231222Z 08009KT 15/15 A3002 RMK A01 T01520148  RH  097%=      5-min Rain = 0
KCR1 231223Z 09008KT 15/15 A3002 RMK A01 T01520147  RH  097%=      5-min Rain = 0
KCR1 231224Z 07007KT 15/15 A3002 RMK A01 T01520148  RH  097%=      5-min Rain = 0
KCR1 231225Z 07010KT 15/15 A3002 RMK A01 T01520148  RH  097%=      5-min Rain = 0
KCR1 231226Z 07008KT 15/15 A3002 RMK A01 T01520148  RH  097%=      5-min Rain = 0
KCR1 231227Z 06009KT 15/15 A3002 RMK A01 T01520148  RH  097%=      5-min Rain = 0
KCR1 231228Z 06008KT 15/15 A3003 RMK A01 T01520148  RH  097%=      5-min Rain = 0
KCR1 231229Z 04008KT 15/15 A3003 RMK A01 T01520148  RH  097%=      5-min Rain = 0
KCR1 231230Z 02009KT 15/15 A3003 RMK A01 T01520148  RH  097%=      5-min Rain = 0
KCR1 231231Z 02009KT 15/15 A3004 RMK A01 T01520148  RH  097%=      5-min Rain = 0
KCR1 231232Z 00011KT 15/15 A3004 RMK A01 T01520148  RH  098%=      5-min Rain = 0
KCR1 231233Z 00012KT 15/15 A3004 RMK A01 T01530149  RH  098%=      5-min Rain = 0
KCR1 231234Z 00014KT 15/15 A3004 RMK A01 T01530149  RH  098%=      5-min Rain = 0
KCR1 231235Z 00016KT 15/15 A3004 RMK A01 T01530149  RH  098%=      5-min Rain = 0
KCR1 231236Z 01014KT 15/15 A3004 RMK A01 T01530149  RH  097%=      5-min Rain = 0
KCR1 231237Z 01012KT 15/15 A3004 RMK A01 T01530149  RH  097%=      5-min Rain = 0
KCR1 231238Z 01010KT 15/15 A3004 RMK A01 T01530149  RH  097%=      5-min Rain = 0.01
KCR1 231239Z 00011G17KT 15/15 A3004 RMK A01 T01530149  RH  097%=      5-min Rain = 0
KCR1 231240Z 01012KT 15/15 A3004 RMK A01 T01530148  RH  097%=      5-min Rain = 0.01
KCR1 231241Z 02011KT 15/15 A3004 RMK A01 T01530148  RH  097%=      5-min Rain = 0
KCR1 231242Z 03010KT 15/15 A3004 RMK A01 T01520148  RH  097%=      5-min Rain = 0.01
KCR1 231243Z 04010KT 15/15 A3003 RMK A01 T01520147  RH  097%=      5-min Rain = 0
KCR1 231244Z 03009KT 15/15 A3003 RMK A01 T01520147  RH  097%=      5-min Rain = 0
KCR1 231245Z 02011KT 15/15 A3003 RMK A01 T01520147  RH  097%=      5-min Rain = 0
KCR1 231246Z 02011KT 15/15 A3003 RMK A01 T01520148  RH  097%=      5-min Rain = 0
KCR1 231247Z 02014KT 15/15 A3003 RMK A01 T01530148  RH  097%=      5-min Rain = 0
KCR1 231248Z 02012KT 15/15 A3003 RMK A01 T01530148  RH  097%=      5-min Rain = 0
KCR1 231249Z 02011KT 15/15 A3003 RMK A01 T01530148  RH  097%=      5-min Rain = 0.01
KCR1 231250Z 02010KT 15/15 A3003 RMK A01 T01530148  RH  097%=      5-min Rain = 0
KCR1 231251Z 03011KT 15/15 A3002 RMK A01 T01530148  RH  097%=      5-min Rain = 0
KCR1 231252Z 04011KT 15/15 A3002 RMK A01 T01520147  RH  097%=      5-min Rain = 0
KCR1 231253Z 05012KT 15/15 A3002 RMK A01 T01520147  RH  097%=      5-min Rain = 0.01
KCR1 231254Z 06013KT 15/15 A3002 RMK A01 T01520147  RH  097%=      5-min Rain = 0.01
KCR1 231255Z 06013KT 15/15 A3002 RMK A01 T01520147  RH  097%=      5-min Rain = 0.01
KCR1 231256Z 05012KT 15/15 A3003 RMK A01 T01520147  RH  096%=      5-min Rain = 0.01
KCR1 231257Z 05013KT 15/15 A3003 RMK A01 T01520147  RH  096%=      5-min Rain = 0
KCR1 231258Z 05012KT 15/15 A3003 RMK A01 T01520147  RH  096%=      5-min Rain = 0.01
KCR1 231259Z 05009KT 15/15 A3003 RMK A01 T01520147  RH  096%=      5-min Rain = 0
KCR1 231300Z 05009KT 15/15 A3004 RMK A01 T01520147  RH  097%=      5-min Rain = 0.01
KCR1 231301Z 06009KT 15/15 A3004 RMK A01 T01520147  RH  097%=      5-min Rain = 0.01
KCR1 231302Z 06011KT 15/15 A3004 RMK A01 T01520147  RH  097%=      5-min Rain = 0.01
KCR1 231303Z 06011KT 15/15 A3004 RMK A01 T01520147  RH  097%=      5-min Rain = 0
KCR1 231304Z 07010KT 15/15 A3004 RMK A01 T01510146  RH  097%=      5-min Rain = 0
KCR1 231305Z 07013KT 15/15 A3003 RMK A01 T01510146  RH  097%=      5-min Rain = 0.03
KCR1 231306Z 06010KT 15/15 A3003 RMK A01 T01510146  RH  097%=      5-min Rain = 0.02
KCR1 231307Z 06010KT 15/15 A3003 RMK A01 T01510145  RH  096%=      5-min Rain = 0.03
KCR1 231308Z 06011KT 15/15 A3003 RMK A01 T01510145  RH  097%=      5-min Rain = 0.05
KCR1 231309Z 06011KT 15/15 A3003 RMK A01 T01510146  RH  097%=      5-min Rain = 0.03
KCR1 231310Z 06013KT 15/15 A3003 RMK A01 T01510146  RH  097%=      5-min Rain = 0.02
KCR1 231311Z 06012KT 15/15 A3003 RMK A01 T01500146  RH  097%=      5-min Rain = 0.01
KCR1 231312Z 06009KT 15/15 A3003 RMK A01 T01500146  RH  097%=      5-min Rain = 0.01
KCR1 231313Z 06009KT 15/15 A3003 RMK A01 T01500146  RH  097%=      5-min Rain = 0.03
KCR1 231314Z 08010KT 15/15 A3003 RMK A01 T01490145  RH  097%=      5-min Rain = 0.04
KCR1 231315Z 09009KT 15/15 A3003 RMK A01 T01500145  RH  097%=      5-min Rain = 0.02
KCR1 231316Z 09008KT 15/15 A3003 RMK A01 T01500146  RH  097%=      5-min Rain = 0
KCR1 231317Z 08008KT 15/15 A3003 RMK A01 T01500146  RH  098%=      5-min Rain = 0.01
KCR1 231318Z 09007KT 15/15 A3003 RMK A01 T01500146  RH  098%=      5-min Rain = 0
KCR1 231319Z 08010KT 15/15 A3003 RMK A01 T01500146  RH  098%=      5-min Rain = 0
KCR1 231320Z 08013KT 15/15 A3003 RMK A01 T01490145  RH  098%=      5-min Rain = 0
KCR1 231321Z 08012KT 15/15 A3002 RMK A01 T01490145  RH  098%=      5-min Rain = 0
KCR1 231322Z 07011KT 15/15 A3002 RMK A01 T01490145  RH  098%=      5-min Rain = 0
KCR1 231323Z 07009KT 15/15 A3002 RMK A01 T01490146  RH  098%=      5-min Rain = 0
KCR1 231324Z 07010KT 15/15 A3002 RMK A01 T01490145  RH  098%=      5-min Rain = 0
KCR1 231325Z 08008KT 15/15 A3003 RMK A01 T01490145  RH  098%=      5-min Rain = 0
KCR1 231326Z 08007KT 15/15 A3003 RMK A01 T01490145  RH  098%=      5-min Rain = 0
KCR1 231327Z 07009KT 15/15 A3003 RMK A01 T01490145  RH  098%=      5-min Rain = 0
KCR1 231328Z 07009KT 15/15 A3003 RMK A01 T01490145  RH  098%=      5-min Rain = 0
KCR1 231329Z 07012KT 15/15 A3002 RMK A01 T01490145  RH  098%=      5-min Rain = 0
KCR1 231330Z 06014KT 15/15 A3002 RMK A01 T01490145  RH  098%=      5-min Rain = 0
KCR1 231331Z 06014KT 15/15 A3002 RMK A01 T01490145  RH  097%=      5-min Rain = 0
KCR1 231332Z 06011KT 15/15 A3002 RMK A01 T01500145  RH  097%=      5-min Rain = 0
KCR1 231333Z 06010KT 15/15 A3002 RMK A01 T01500146  RH  097%=      5-min Rain = 0
KCR1 231334Z 06011KT 15/15 A3002 RMK A01 T01500146  RH  097%=      5-min Rain = 0
KCR1 231335Z 07009KT 15/15 A3003 RMK A01 T01500146  RH  097%=      5-min Rain = 0
KCR1 231336Z 07010KT 15/15 A3003 RMK A01 T01500146  RH  097%=      5-min Rain = 0
KCR1 231337Z 08010KT 15/15 A3003 RMK A01 T01500146  RH  097%=      5-min Rain = 0
KCR1 231338Z 07010KT 15/15 A3003 RMK A01 T01500146  RH  097%=      5-min Rain = 0
KCR1 231339Z 07009KT 15/15 A3003 RMK A01 T01500146  RH  097%=      5-min Rain = 0
KCR1 231340Z 07009KT 15/15 A3003 RMK A01 T01500146  RH  097%=      5-min Rain = 0
KCR1 231341Z 08011KT 15/15 A3003 RMK A01 T01500146  RH  097%=      5-min Rain = 0
KCR1 231342Z 07009KT 15/15 A3003 RMK A01 T01500146  RH  097%=      5-min Rain = 0
KCR1 231343Z 07009KT 15/15 A3003 RMK A01 T01500146  RH  097%=      5-min Rain = 0
KCR1 231344Z 09010KT 15/15 A3003 RMK A01 T01510146  RH  097%=      5-min Rain = 0
KCR1 231345Z 08010KT 15/15 A3003 RMK A01 T01510147  RH  097%=      5-min Rain = 0
KCR1 231346Z 08009KT 15/15 A3003 RMK A01 T01510147  RH  097%=      5-min Rain = 0
KCR1 231347Z 08010KT 15/15 A3003 RMK A01 T01520147  RH  097%=      5-min Rain = 0
KCR1 231348Z 08010KT 15/15 A3003 RMK A01 T01510146  RH  097%=      5-min Rain = 0
KCR1 231349Z 08009KT 15/15 A3003 RMK A01 T01520147  RH  097%=      5-min Rain = 0
KCR1 231350Z 08009KT 15/15 A3003 RMK A01 T01520147  RH  097%=      5-min Rain = 0
KCR1 231351Z 09009KT 15/15 A3003 RMK A01 T01520147  RH  097%=      5-min Rain = 0
KCR1 231352Z 08011KT 15/15 A3003 RMK A01 T01530147  RH  096%=      5-min Rain = 0
KCR1 231353Z 08011KT 15/15 A3003 RMK A01 T01540147  RH  096%=      5-min Rain = 0
KCR1 231354Z 08011KT 16/15 A3003 RMK A01 T01550148  RH  096%=      5-min Rain = 0
KCR1 231355Z 08009KT 16/15 A3003 RMK A01 T01560149  RH  096%=      5-min Rain = 0
KCR1 231356Z 08009KT 16/15 A3003 RMK A01 T01570150  RH  095%=      5-min Rain = 0
KCR1 231357Z 09008KT 16/15 A3003 RMK A01 T01570149  RH  095%=      5-min Rain = 0
KCR1 231358Z 07010KT 16/15 A3003 RMK A01 T01590151  RH  095%=      5-min Rain = 0
KCR1 231359Z 07010KT 16/15 A3004 RMK A01 T01590149  RH  094%=      5-min Rain = 0
KCR1 231400Z 07008KT 16/15 A3004 RMK A01 T01580148  RH  093%=      5-min Rain = 0
KCR1 231401Z 08009KT 16/15 A3004 RMK A01 T01580148  RH  094%=      5-min Rain = 0
KCR1 231402Z 08008KT 16/15 A3004 RMK A01 T01600150  RH  094%=      5-min Rain = 0
KCR1 231403Z 07009KT 16/15 A3004 RMK A01 T01610152  RH  095%=      5-min Rain = 0
KCR1 231404Z 08009KT 16/15 A3003 RMK A01 T01610150  RH  093%=      5-min Rain = 0
KCR1 231405Z 07010KT 16/15 A3003 RMK A01 T01600149  RH  093%=      5-min Rain = 0
KCR1 231406Z 08009KT 16/15 A3003 RMK A01 T01600150  RH  093%=      5-min Rain = 0
KCR1 231407Z 08010KT 16/15 A3004 RMK A01 T01600150  RH  093%=      5-min Rain = 0
KCR1 231408Z 08011KT 16/15 A3004 RMK A01 T01600148  RH  093%=      5-min Rain = 0
KCR1 231409Z 09011KT 16/15 A3004 RMK A01 T01600148  RH  092%=      5-min Rain = 0
KCR1 231410Z 09010KT 16/15 A3004 RMK A01 T01600147  RH  092%=      5-min Rain = 0
KCR1 231411Z 08010KT 16/15 A3003 RMK A01 T01590148  RH  093%=      5-min Rain = 0
KCR1 231412Z 09011KT 16/15 A3003 RMK A01 T01590148  RH  093%=      5-min Rain = 0
KCR1 231413Z 10011KT 16/15 A3003 RMK A01 T01600150  RH  093%=      5-min Rain = 0
KCR1 231414Z 09012KT 16/15 A3003 RMK A01 T01610148  RH  092%=      5-min Rain = 0
KCR1 231415Z 09010KT 16/15 A3003 RMK A01 T01610148  RH  092%=      5-min Rain = 0
KCR1 231416Z 10009KT 16/15 A3003 RMK A01 T01610149  RH  093%=      5-min Rain = 0
KCR1 231417Z 09010KT 16/15 A3003 RMK A01 T01610149  RH  093%=      5-min Rain = 0
KCR1 231418Z 09010KT 16/15 A3003 RMK A01 T01610149  RH  093%=      5-min Rain = 0
KCR1 231419Z 10009KT 16/15 A3003 RMK A01 T01610149  RH  092%=      5-min Rain = 0
KCR1 231420Z 10009KT 16/15 A3004 RMK A01 T01610149  RH  093%=      5-min Rain = 0
KCR1 231421Z 11008G13KT 16/15 A3004 RMK A01 T01610150  RH  093%=      5-min Rain = 0
KCR1 231422Z 10010KT 16/15 A3004 RMK A01 T01620149  RH  092%=      5-min Rain = 0
KCR1 231423Z 10008KT 16/15 A3004 RMK A01 T01620149  RH  092%=      5-min Rain = 0
KCR1 231424Z 09011KT 16/15 A3004 RMK A01 T01630150  RH  092%=      5-min Rain = 0
KCR1 231425Z 10010KT 16/15 A3004 RMK A01 T01630148  RH  091%=      5-min Rain = 0
KCR1 231426Z 09013KT 16/15 A3004 RMK A01 T01630146  RH  090%=      5-min Rain = 0
KCR1 231427Z 09011KT 16/15 A3004 RMK A01 T01630145  RH  090%=      5-min Rain = 0
KCR1 231428Z 09011KT 16/15 A3004 RMK A01 T01620145  RH  090%=      5-min Rain = 0
KCR1 231429Z 10010KT 16/15 A3004 RMK A01 T01620146  RH  090%=      5-min Rain = 0
KCR1 231430Z 09011KT 16/15 A3004 RMK A01 T01620146  RH  091%=      5-min Rain = 0
KCR1 231431Z 09010KT 16/15 A3004 RMK A01 T01610145  RH  090%=      5-min Rain = 0
KCR1 231432Z 08010KT 16/15 A3004 RMK A01 T01610146  RH  090%=      5-min Rain = 0
KCR1 231433Z 09012KT 16/15 A3004 RMK A01 T01610145  RH  090%=      5-min Rain = 0
KCR1 231434Z 08010KT 16/15 A3004 RMK A01 T01610145  RH  090%=      5-min Rain = 0
KCR1 231435Z 08010KT 16/15 A3004 RMK A01 T01620146  RH  090%=      5-min Rain = 0
KCR1 231436Z 08011KT 16/15 A3004 RMK A01 T01610146  RH  090%=      5-min Rain = 0
KCR1 231437Z 10010KT 16/15 A3004 RMK A01 T01620146  RH  090%=      5-min Rain = 0
KCR1 231438Z 09011KT 16/15 A3005 RMK A01 T01630147  RH  091%=      5-min Rain = 0
KCR1 231439Z 10010KT 16/15 A3005 RMK A01 T01630146  RH  090%=      5-min Rain = 0
KCR1 231440Z 10010KT 16/15 A3005 RMK A01 T01630147  RH  090%=      5-min Rain = 0
KCR1 231441Z 10011KT 16/15 A3005 RMK A01 T01630146  RH  090%=      5-min Rain = 0
KCR1 231442Z 10011KT 16/15 A3005 RMK A01 T01630146  RH  090%=      5-min Rain = 0
KCR1 231443Z 10010KT 16/15 A3005 RMK A01 T01630145  RH  089%=      5-min Rain = 0
KCR1 231444Z 10011KT 16/15 A3005 RMK A01 T01620145  RH  089%=      5-min Rain = 0
KCR1 231445Z 09010KT 16/14 A3005 RMK A01 T01620144  RH  089%=      5-min Rain = 0
KCR1 231446Z 09008KT 16/15 A3005 RMK A01 T01620145  RH  089%=      5-min Rain = 0
KCR1 231447Z 09008KT 16/15 A3005 RMK A01 T01630147  RH  091%=      5-min Rain = 0
KCR1 231448Z 09010KT 16/15 A3005 RMK A01 T01630146  RH  090%=      5-min Rain = 0
KCR1 231449Z 09009KT 16/15 A3005 RMK A01 T01630146  RH  089%=      5-min Rain = 0
KCR1 231450Z 08007KT 16/15 A3005 RMK A01 T01630146  RH  090%=      5-min Rain = 0
KCR1 231451Z 08009KT 17/15 A3005 RMK A01 T01650150  RH  091%=      5-min Rain = 0
KCR1 231452Z 08011KT 17/15 A3005 RMK A01 T01650148  RH  089%=      5-min Rain = 0
KCR1 231453Z 08011KT 17/15 A3005 RMK A01 T01660146  RH  088%=      5-min Rain = 0
KCR1 231454Z 09011KT 17/15 A3005 RMK A01 T01670146  RH  087%=      5-min Rain = 0
KCR1 231455Z 09009KT 17/15 A3005 RMK A01 T01680147  RH  088%=      5-min Rain = 0
KCR1 231456Z 09008KT 17/15 A3005 RMK A01 T01690148  RH  088%=      5-min Rain = 0
KCR1 231457Z 08009KT 17/15 A3005 RMK A01 T01700149  RH  087%=      5-min Rain = 0
KCR1 231458Z 08010KT 17/15 A3005 RMK A01 T01710150  RH  087%=      5-min Rain = 0
KCR1 231459Z 07009KT 17/15 A3006 RMK A01 T01720150  RH  087%=      5-min Rain = 0
KCR1 231500Z 07010KT 17/14 A3006 RMK A01 T01700144  RH  085%=      5-min Rain = 0
KCR1 231501Z 07010KT 17/15 A3006 RMK A01 T01680145  RH  086%=      5-min Rain = 0
KCR1 231502Z 07008KT 17/15 A3006 RMK A01 T01670147  RH  088%=      5-min Rain = 0
KCR1 231503Z 07010KT 17/15 A3006 RMK A01 T01670148  RH  088%=      5-min Rain = 0
KCR1 231504Z 06010KT 17/15 A3006 RMK A01 T01670145  RH  087%=      5-min Rain = 0
KCR1 231505Z 06010KT 17/15 A3005 RMK A01 T01660145  RH  088%=      5-min Rain = 0
KCR1 231506Z 07010KT 17/15 A3006 RMK A01 T01650146  RH  088%=      5-min Rain = 0
KCR1 231507Z 06010KT 17/15 A3006 RMK A01 T01650146  RH  088%=      5-min Rain = 0
KCR1 231508Z 07009KT 17/15 A3006 RMK A01 T01650145  RH  088%=      5-min Rain = 0
KCR1 231509Z 08009KT 17/15 A3006 RMK A01 T01650146  RH  088%=      5-min Rain = 0
KCR1 231510Z 07008KT 17/15 A3006 RMK A01 T01650147  RH  089%=      5-min Rain = 0
KCR1 231511Z 06008KT 17/15 A3006 RMK A01 T01660147  RH  089%=      5-min Rain = 0
KCR1 231512Z 05010KT 17/15 A3006 RMK A01 T01670149  RH  089%=      5-min Rain = 0
KCR1 231513Z 06009KT 17/15 A3006 RMK A01 T01670148  RH  088%=      5-min Rain = 0
KCR1 231514Z 07009KT 17/15 A3006 RMK A01 T01670148  RH  088%=      5-min Rain = 0
KCR1 231515Z 07008KT 17/15 A3006 RMK A01 T01680149  RH  088%=      5-min Rain = 0
KCR1 231516Z 06008KT 17/15 A3006 RMK A01 T01690150  RH  088%=      5-min Rain = 0
KCR1 231517Z 07010KT 17/15 A3006 RMK A01 T01700149  RH  088%=      5-min Rain = 0
KCR1 231518Z 06009KT 17/15 A3006 RMK A01 T01700148  RH  087%=      5-min Rain = 0
KCR1 231519Z 06009KT 17/15 A3006 RMK A01 T01700148  RH  087%=      5-min Rain = 0
KCR1 231520Z 06009KT 17/15 A3006 RMK A01 T01710148  RH  087%=      5-min Rain = 0
KCR1 231521Z 06010KT 17/15 A3006 RMK A01 T01720149  RH  086%=      5-min Rain = 0
KCR1 231522Z 06009KT 17/15 A3007 RMK A01 T01720149  RH  086%=      5-min Rain = 0
KCR1 231523Z 06010KT 17/15 A3007 RMK A01 T01730149  RH  086%=      5-min Rain = 0
KCR1 231524Z 04010KT 17/15 A3007 RMK A01 T01730148  RH  085%=      5-min Rain = 0
KCR1 231525Z 04011KT 17/15 A3007 RMK A01 T01720148  RH  086%=      5-min Rain = 0
KCR1 231526Z 05010KT 17/15 A3007 RMK A01 T01720147  RH  086%=      5-min Rain = 0
KCR1 231527Z 05009KT 17/15 A3007 RMK A01 T01720149  RH  087%=      5-min Rain = 0
KCR1 231528Z 06010KT 17/15 A3007 RMK A01 T01720148  RH  086%=      5-min Rain = 0
KCR1 231529Z 04010KT 17/15 A3007 RMK A01 T01720148  RH  086%=      5-min Rain = 0
KCR1 231530Z 04008KT 17/15 A3007 RMK A01 T01710148  RH  086%=      5-min Rain = 0
KCR1 231531Z 05009KT 17/15 A3007 RMK A01 T01720150  RH  087%=      5-min Rain = 0
KCR1 231532Z 04009KT 17/15 A3007 RMK A01 T01720148  RH  086%=      5-min Rain = 0
KCR1 231533Z 04011KT 17/15 A3006 RMK A01 T01720149  RH  086%=      5-min Rain = 0
KCR1 231534Z 04010KT 17/15 A3006 RMK A01 T01720147  RH  085%=      5-min Rain = 0
KCR1 231535Z 05010KT 17/15 A3006 RMK A01 T01700147  RH  086%=      5-min Rain = 0
KCR1 231536Z 05009KT 17/15 A3006 RMK A01 T01700148  RH  087%=      5-min Rain = 0
KCR1 231537Z 05010KT 17/15 A3006 RMK A01 T01710150  RH  087%=      5-min Rain = 0
KCR1 231538Z 04009KT 17/15 A3006 RMK A01 T01710149  RH  087%=      5-min Rain = 0
KCR1 231539Z 05009KT 17/15 A3007 RMK A01 T01700148  RH  087%=      5-min Rain = 0
KCR1 231540Z 04010KT 17/15 A3007 RMK A01 T01690147  RH  087%=      5-min Rain = 0
KCR1 231541Z 04008KT 17/15 A3007 RMK A01 T01680149  RH  089%=      5-min Rain = 0
KCR1 231542Z 04009KT 17/15 A3007 RMK A01 T01670146  RH  087%=      5-min Rain = 0
KCR1 231543Z 04007KT 17/15 A3007 RMK A01 T01670146  RH  088%=      5-min Rain = 0
KCR1 231544Z 04006KT 17/15 A3007 RMK A01 T01660146  RH  088%=      5-min Rain = 0
KCR1 231545Z 03007KT 17/15 A3007 RMK A01 T01660146  RH  088%=      5-min Rain = 0
KCR1 231546Z 04007KT 17/15 A3007 RMK A01 T01660148  RH  089%=      5-min Rain = 0
KCR1 231547Z 04007KT 17/15 A3007 RMK A01 T01650147  RH  089%=      5-min Rain = 0
KCR1 231548Z 03008KT 17/15 A3008 RMK A01 T01650146  RH  088%=      5-min Rain = 0
KCR1 231549Z 03007KT 17/15 A3008 RMK A01 T01660146  RH  088%=      5-min Rain = 0
KCR1 231550Z 02008KT 17/15 A3008 RMK A01 T01660145  RH  088%=      5-min Rain = 0
KCR1 231551Z 01009KT 17/14 A3008 RMK A01 T01650143  RH  087%=      5-min Rain = 0
KCR1 231552Z 01008KT 17/14 A3008 RMK A01 T01650143  RH  087%=      5-min Rain = 0
KCR1 231553Z 01008KT 16/14 A3008 RMK A01 T01640142  RH  087%=      5-min Rain = 0
KCR1 231554Z 02008KT 16/14 A3008 RMK A01 T01640143  RH  087%=      5-min Rain = 0
KCR1 231555Z 03008KT 16/14 A3007 RMK A01 T01640143  RH  087%=      5-min Rain = 0
KCR1 231556Z 03009KT 16/14 A3007 RMK A01 T01640143  RH  087%=      5-min Rain = 0
KCR1 231557Z 03010KT 17/14 A3007 RMK A01 T01650143  RH  087%=      5-min Rain = 0
KCR1 231558Z 05009KT 17/14 A3007 RMK A01 T01650143  RH  087%=      5-min Rain = 0
KCR1 231559Z 04008KT 17/14 A3007 RMK A01 T01650144  RH  088%=      5-min Rain = 0
KCR1 231600Z 04008KT 17/15 A3007 RMK A01 T01660146  RH  088%=      5-min Rain = 0
KCR1 231601Z 04008KT 17/15 A3006 RMK A01 T01660146  RH  088%=      5-min Rain = 0
KCR1 231602Z 04009KT 17/14 A3006 RMK A01 T01660144  RH  087%=      5-min Rain = 0
KCR1 231603Z 04008KT 17/14 A3007 RMK A01 T01660144  RH  087%=      5-min Rain = 0
KCR1 231604Z 03007KT 17/15 A3007 RMK A01 T01660146  RH  088%=      5-min Rain = 0
KCR1 231605Z 02007KT 17/15 A3007 RMK A01 T01660145  RH  087%=      5-min Rain = 0
KCR1 231606Z 02007KT 17/15 A3008 RMK A01 T01660146  RH  088%=      5-min Rain = 0
KCR1 231607Z 02006KT 17/15 A3008 RMK A01 T01650145  RH  088%=      5-min Rain = 0
KCR1 231608Z 00008KT 17/15 A3008 RMK A01 T01650146  RH  089%=      5-min Rain = 0
KCR1 231609Z 01008KT 16/15 A3008 RMK A01 T01640147  RH  090%=      5-min Rain = 0
KCR1 231610Z 01009KT 16/15 A3008 RMK A01 T01640147  RH  090%=      5-min Rain = 0
KCR1 231611Z 01008KT 16/15 A3007 RMK A01 T01640147  RH  090%=      5-min Rain = 0
KCR1 231612Z 02006KT 16/15 A3007 RMK A01 T01640149  RH  091%=      5-min Rain = 0
KCR1 231613Z 03007KT 17/15 A3007 RMK A01 T01650151  RH  091%=      5-min Rain = 0
KCR1 231614Z 03008KT 17/15 A3007 RMK A01 T01650149  RH  090%=      5-min Rain = 0
KCR1 231615Z 03009KT 17/15 A3007 RMK A01 T01660146  RH  088%=      5-min Rain = 0
KCR1 231616Z 03008KT 17/14 A3008 RMK A01 T01650144  RH  087%=      5-min Rain = 0
KCR1 231617Z 02007KT 17/14 A3008 RMK A01 T01650144  RH  088%=      5-min Rain = 0
KCR1 231618Z 01007KT 16/14 A3008 RMK A01 T01640144  RH  088%=      5-min Rain = 0
KCR1 231619Z 02007KT 16/14 A3008 RMK A01 T01640144  RH  088%=      5-min Rain = 0
KCR1 231620Z 02007KT 16/14 A3008 RMK A01 T01640144  RH  088%=      5-min Rain = 0
KCR1 231621Z 02007KT 16/15 A3008 RMK A01 T01640145  RH  088%=      5-min Rain = 0
KCR1 231622Z 01008KT 16/14 A3008 RMK A01 T01640143  RH  088%=      5-min Rain = 0
KCR1 231623Z 01008KT 16/14 A3008 RMK A01 T01640144  RH  088%=      5-min Rain = 0
KCR1 231624Z 01008KT 16/14 A3007 RMK A01 T01640144  RH  088%=      5-min Rain = 0
KCR1 231625Z 02008KT 16/15 A3007 RMK A01 T01640145  RH  088%=      5-min Rain = 0
KCR1 231626Z 02008KT 16/15 A3007 RMK A01 T01640145  RH  089%=      5-min Rain = 0
KCR1 231627Z 03007KT 16/15 A3007 RMK A01 T01640145  RH  089%=      5-min Rain = 0
KCR1 231628Z 02007KT 16/15 A3007 RMK A01 T01640145  RH  089%=      5-min Rain = 0
KCR1 231629Z 02007KT 16/15 A3007 RMK A01 T01640147  RH  089%=      5-min Rain = 0
KCR1 231630Z 02006KT 17/15 A3007 RMK A01 T01650146  RH  088%=      5-min Rain = 0
KCR1 231631Z 03007KT 17/14 A3007 RMK A01 T01650144  RH  087%=      5-min Rain = 0
KCR1 231632Z 03007KT 17/14 A3007 RMK A01 T01650143  RH  087%=      5-min Rain = 0
KCR1 231633Z 03006KT 16/14 A3007 RMK A01 T01640143  RH  087%=      5-min Rain = 0
KCR1 231634Z 04006KT 16/14 A3007 RMK A01 T01640144  RH  088%=      5-min Rain = 0
KCR1 231635Z 04005KT 16/15 A3008 RMK A01 T01640145  RH  089%=      5-min Rain = 0
KCR1 231636Z 04006KT 16/15 A3008 RMK A01 T01640145  RH  088%=      5-min Rain = 0
KCR1 231637Z 03006KT 17/15 A3008 RMK A01 T01650145  RH  088%=      5-min Rain = 0
KCR1 231638Z 03005KT 17/15 A3008 RMK A01 T01650146  RH  088%=      5-min Rain = 0
KCR1 231639Z 02006KT 17/15 A3008 RMK A01 T01650146  RH  089%=      5-min Rain = 0
KCR1 231640Z 02005KT 16/14 A3008 RMK A01 T01640144  RH  088%=      5-min Rain = 0
KCR1 231641Z 02004KT 16/14 A3009 RMK A01 T01640144  RH  088%=      5-min Rain = 0
KCR1 231642Z 00004KT 16/15 A3009 RMK A01 T01640145  RH  089%=      5-min Rain = 0
KCR1 231643Z 02005KT 16/15 A3009 RMK A01 T01640145  RH  089%=      5-min Rain = 0
KCR1 231644Z 02004KT 16/14 A3009 RMK A01 T01630142  RH  087%=      5-min Rain = 0
KCR1 231645Z 02005KT 16/14 A3009 RMK A01 T01630144  RH  089%=      5-min Rain = 0
KCR1 231646Z 04006KT 16/14 A3009 RMK A01 T01630143  RH  088%=      5-min Rain = 0
KCR1 231647Z 04006KT 16/14 A3009 RMK A01 T01630142  RH  087%=      5-min Rain = 0
KCR1 231648Z 03006KT 16/14 A3009 RMK A01 T01630143  RH  087%=      5-min Rain = 0
KCR1 231649Z 03004KT 16/14 A3009 RMK A01 T01630142  RH  087%=      5-min Rain = 0
KCR1 231650Z 04005KT 16/14 A3009 RMK A01 T01630143  RH  088%=      5-min Rain = 0
KCR1 231651Z 04005KT 16/14 A3009 RMK A01 T01630142  RH  087%=      5-min Rain = 0
KCR1 231652Z 05004KT 16/14 A3009 RMK A01 T01630142  RH  087%=      5-min Rain = 0
KCR1 231653Z 06004KT 16/14 A3009 RMK A01 T01630141  RH  087%=      5-min Rain = 0
KCR1 231654Z 07004KT 16/14 A3009 RMK A01 T01630140  RH  086%=      5-min Rain = 0
KCR1 231655Z 07003KT 16/14 A3009 RMK A01 T01630140  RH  086%=      5-min Rain = 0
KCR1 231656Z 05003KT 16/14 A3009 RMK A01 T01630141  RH  087%=      5-min Rain = 0
KCR1 231657Z 04003KT 16/14 A3009 RMK A01 T01630139  RH  086%=      5-min Rain = 0
KCR1 231658Z 03003KT 16/14 A3009 RMK A01 T01630139  RH  086%=      5-min Rain = 0
KCR1 231659Z 02002KT 16/14 A3009 RMK A01 T01630140  RH  086%=      5-min Rain = 0
KCR1 231700Z 02003KT 16/14 A3009 RMK A01 T01630140  RH  087%=      5-min Rain = 0
KCR1 231701Z 02002KT 16/14 A3009 RMK A01 T01630137  RH  085%=      5-min Rain = 0
KCR1 231702Z 01002KT 16/14 A301 RMK A01 T01630138  RH  085%=      5-min Rain = 0
KCR1 231703Z 02003KT 16/14 A301 RMK A01 T01630141  RH  087%=      5-min Rain = 0
KCR1 231704Z 03003KT 16/14 A3009 RMK A01 T01630140  RH  086%=      5-min Rain = 0
KCR1 231705Z 04002KT 16/14 A3009 RMK A01 T01630140  RH  087%=      5-min Rain = 0.01
KCR1 231706Z 04003KT 16/14 A3009 RMK A01 T01630142  RH  087%=      5-min Rain = 0
KCR1 231707Z 04002KT 16/14 A3009 RMK A01 T01630140  RH  087%=      5-min Rain = 0
KCR1 231708Z 04003KT 16/14 A3009 RMK A01 T01620143  RH  088%=      5-min Rain = 0
KCR1 231709Z 05003KT 16/14 A3009 RMK A01 T01620142  RH  088%=      5-min Rain = 0
KCR1 231710Z 05003KT 16/14 A3009 RMK A01 T01620142  RH  088%=      5-min Rain = 0
KCR1 231711Z 08004KT 16/15 A3009 RMK A01 T01620145  RH  089%=      5-min Rain = 0
KCR1 231712Z 07005KT 16/14 A3008 RMK A01 T01620144  RH  089%=      5-min Rain = 0
KCR1 231713Z 06006KT 16/14 A3008 RMK A01 T01610143  RH  089%=      5-min Rain = 0
KCR1 231714Z 06007KT 16/15 A3007 RMK A01 T01610145  RH  090%=      5-min Rain = 0.01
KCR1 231715Z 06007KT 16/15 A3006 RMK A01 T01620145  RH  090%=      5-min Rain = 0
KCR1 231716Z 05008KT 16/15 A3006 RMK A01 T01620147  RH  091%=      5-min Rain = 0
KCR1 231717Z 05010KT 16/15 A3005 RMK A01 T01610147  RH  091%=      5-min Rain = 0
KCR1 231718Z 05010KT 16/15 A3005 RMK A01 T01610148  RH  092%=      5-min Rain = 0
KCR1 231719Z 05010KT 16/15 A3004 RMK A01 T01610148  RH  092%=      5-min Rain = 0
KCR1 231720Z 05013KT 16/15 A3003 RMK A01 T01610149  RH  092%=      5-min Rain = 0.01
KCR1 231721Z 05015KT 16/15 A3001 RMK A01 T01610147  RH  091%=      5-min Rain = 0
KCR1 231722Z 05016KT 16/15 A3001 RMK A01 T01600146  RH  091%=      5-min Rain = 0
KCR1 231723Z 05016KT 16/15 A30 RMK A01 T01600145  RH  091%=      5-min Rain = 0
KCR1 231724Z 05017KT 16/15 A2999 RMK A01 T01600146  RH  091%=      5-min Rain = 0
KCR1 231725Z 05016KT 16/15 A2998 RMK A01 T01600146  RH  091%=      5-min Rain = 0
KCR1 231726Z 06016KT 16/15 A2998 RMK A01 T01600146  RH  091%=      5-min Rain = 0
KCR1 231727Z 06014KT 16/15 A2998 RMK A01 T01600147  RH  092%=      5-min Rain = 0
KCR1 231728Z 06013KT 16/15 A2999 RMK A01 T01610148  RH  092%=      5-min Rain = 0
KCR1 231729Z 06014KT 16/15 A2999 RMK A01 T01610148  RH  092%=      5-min Rain = 0
KCR1 231730Z 07011KT 16/15 A30 RMK A01 T01610148  RH  092%=      5-min Rain = 0
KCR1 231731Z 07011KT 16/15 A30 RMK A01 T01620148  RH  091%=      5-min Rain = 0
KCR1 231732Z 07014KT 16/15 A2999 RMK A01 T01620148  RH  091%=      5-min Rain = 0
KCR1 231733Z 07014KT 16/15 A2999 RMK A01 T01620147  RH  090%=      5-min Rain = 0
KCR1 231734Z 07016KT 16/15 A2998 RMK A01 T01630148  RH  091%=      5-min Rain = 0
KCR1 231735Z 08016KT 16/15 A2998 RMK A01 T01630148  RH  091%=      5-min Rain = 0
KCR1 231736Z 08017KT 16/15 A2998 RMK A01 T01620147  RH  091%=      5-min Rain = 0
KCR1 231737Z 07015KT 16/15 A2997 RMK A01 T01620148  RH  091%=      5-min Rain = 0
KCR1 231738Z 07015KT 16/15 A2997 RMK A01 T01630148  RH  091%=      5-min Rain = 0
KCR1 231739Z 07015KT 16/15 A2997 RMK A01 T01630147  RH  090%=      5-min Rain = 0
KCR1 231740Z 07014KT 16/15 A2997 RMK A01 T01640149  RH  091%=      5-min Rain = 0
KCR1 231741Z 07015KT 17/15 A2997 RMK A01 T01650150  RH  091%=      5-min Rain = 0
KCR1 231742Z 07015KT 17/15 A2997 RMK A01 T01650149  RH  090%=      5-min Rain = 0
KCR1 231743Z 07013KT 17/15 A2998 RMK A01 T01650149  RH  090%=      5-min Rain = 0
KCR1 231744Z 07013KT 17/15 A2998 RMK A01 T01660150  RH  090%=      5-min Rain = 0
KCR1 231745Z 07011KT 17/15 A2999 RMK A01 T01670152  RH  091%=      5-min Rain = 0
KCR1 231746Z 06010KT 17/16 A30 RMK A01 T01700156  RH  092%=      5-min Rain = 0
KCR1 231747Z 06010KT 17/16 A30 RMK A01 T01720157  RH  091%=      5-min Rain = 0
KCR1 231748Z 04009KT 17/15 A3001 RMK A01 T01720153  RH  089%=      5-min Rain = 0
KCR1 231749Z 03009KT 17/16 A3002 RMK A01 T01720155  RH  090%=      5-min Rain = 0
KCR1 231750Z 04010KT 17/15 A3002 RMK A01 T01720152  RH  088%=      5-min Rain = 0
KCR1 231751Z 04011KT 17/15 A3002 RMK A01 T01710151  RH  088%=      5-min Rain = 0
KCR1 231752Z 04010KT 17/15 A3002 RMK A01 T01710151  RH  088%=      5-min Rain = 0
KCR1 231753Z 05013KT 17/15 A3002 RMK A01 T01710152  RH  089%=      5-min Rain = 0
KCR1 231754Z 05011KT 17/15 A3002 RMK A01 T01720151  RH  087%=      5-min Rain = 0
KCR1 231755Z 04014KT 17/15 A3002 RMK A01 T01720152  RH  088%=      5-min Rain = 0
KCR1 231756Z 04011KT 17/15 A3002 RMK A01 T01730152  RH  088%=      5-min Rain = 0
KCR1 231757Z 05011KT 18/15 A3002 RMK A01 T01750153  RH  087%=      5-min Rain = 0
KCR1 231758Z 05010KT 18/15 A3002 RMK A01 T01750152  RH  086%=      5-min Rain = 0
KCR1 231759Z 06012KT 18/15 A3002 RMK A01 T01750153  RH  087%=      5-min Rain = 0
KCR1 231800Z 05010KT 18/15 A3002 RMK A01 T01750152  RH  086%=      5-min Rain = 0
KCR1 231801Z 04009KT 18/16 A3002 RMK A01 T01750155  RH  088%=      5-min Rain = 0
KCR1 231802Z 05011KT 18/16 A3002 RMK A01 T01760155  RH  088%=      5-min Rain = 0
KCR1 231803Z 04013KT 18/15 A3002 RMK A01 T01760150  RH  085%=      5-min Rain = 0
KCR1 231804Z 04012KT 18/15 A3002 RMK A01 T01750150  RH  085%=      5-min Rain = 0
KCR1 231805Z 04012KT 17/15 A3002 RMK A01 T01740148  RH  085%=      5-min Rain = 0
KCR1 231806Z 04012KT 17/15 A3002 RMK A01 T01730148  RH  085%=      5-min Rain = 0
KCR1 231807Z 04010KT 17/15 A3002 RMK A01 T01720150  RH  087%=      5-min Rain = 0
KCR1 231808Z 05010KT 17/15 A3002 RMK A01 T01720150  RH  087%=      5-min Rain = 0
KCR1 231809Z 05008KT 17/15 A3002 RMK A01 T01730152  RH  087%=      5-min Rain = 0
KCR1 231810Z 05011KT 17/15 A3002 RMK A01 T01730153  RH  088%=      5-min Rain = 0
KCR1 231811Z 05011KT 17/15 A3002 RMK A01 T01730149  RH  085%=      5-min Rain = 0
KCR1 231812Z 04010KT 17/15 A3002 RMK A01 T01720148  RH  086%=      5-min Rain = 0
KCR1 231813Z 04010KT 17/15 A3002 RMK A01 T01720149  RH  087%=      5-min Rain = 0
KCR1 231814Z 05010KT 17/15 A3003 RMK A01 T01720149  RH  086%=      5-min Rain = 0
KCR1 231815Z 04011KT 17/15 A3003 RMK A01 T01730149  RH  086%=      5-min Rain = 0
KCR1 231816Z 04013KT 17/15 A3003 RMK A01 T01720150  RH  087%=      5-min Rain = 0
KCR1 231817Z 03014KT 17/15 A3003 RMK A01 T01700150  RH  088%=      5-min Rain = 0
KCR1 231818Z 03015KT 17/15 A3003 RMK A01 T01650147  RH  089%=      5-min Rain = 0
KCR1 231819Z 03014KT 16/15 A3003 RMK A01 T01620145  RH  090%=      5-min Rain = 0
KCR1 231820Z 04016KT 16/15 A3003 RMK A01 T01590145  RH  091%=      5-min Rain = 0
KCR1 231821Z 03014KT 16/15 A3003 RMK A01 T01580145  RH  092%=      5-min Rain = 0
KCR1 231822Z 02016KT 16/14 A3004 RMK A01 T01570144  RH  092%=      5-min Rain = 0
KCR1 231823Z 03015KT 16/14 A3004 RMK A01 T01550142  RH  092%=      5-min Rain = 0
KCR1 231824Z 04011KT 15/14 A3004 RMK A01 T01540142  RH  093%=      5-min Rain = 0
KCR1 231825Z 03011KT 15/14 A3004 RMK A01 T01540143  RH  093%=      5-min Rain = 0
KCR1 231826Z 03012KT 16/14 A3004 RMK A01 T01550144  RH  093%=      5-min Rain = 0
KCR1 231827Z 03012KT 15/14 A3004 RMK A01 T01540141  RH  092%=      5-min Rain = 0
KCR1 231828Z 03014KT 15/14 A3004 RMK A01 T01530141  RH  093%=      5-min Rain = 0
KCR1 231829Z 02013KT 15/14 A3004 RMK A01 T01530141  RH  093%=      5-min Rain = 0
KCR1 231830Z 02013KT 15/14 A3004 RMK A01 T01520140  RH  093%=      5-min Rain = 0
KCR1 231831Z 02010KT 15/14 A3004 RMK A01 T01520141  RH  093%=      5-min Rain = 0
KCR1 231832Z 02010KT 15/14 A3004 RMK A01 T01520142  RH  094%=      5-min Rain = 0
KCR1 231833Z 02012KT 15/14 A3004 RMK A01 T01520141  RH  093%=      5-min Rain = 0
KCR1 231834Z 02011KT 15/14 A3004 RMK A01 T01530141  RH  093%=      5-min Rain = 0
KCR1 231835Z 03011KT 15/14 A3004 RMK A01 T01520140  RH  092%=      5-min Rain = 0
KCR1 231836Z 03011KT 15/14 A3004 RMK A01 T01520140  RH  092%=      5-min Rain = 0
KCR1 231837Z 03012KT 15/14 A3004 RMK A01 T01530140  RH  092%=      5-min Rain = 0
KCR1 231838Z 03011KT 15/14 A3004 RMK A01 T01520139  RH  092%=      5-min Rain = 0
KCR1 231839Z 02010KT 15/14 A3004 RMK A01 T01530141  RH  092%=      5-min Rain = 0
KCR1 231840Z 03011KT 15/14 A3004 RMK A01 T01530141  RH  093%=      5-min Rain = 0
KCR1 231841Z 03012KT 15/14 A3004 RMK A01 T01530140  RH  092%=      5-min Rain = 0
KCR1 231842Z 03012KT 15/14 A3004 RMK A01 T01530140  RH  092%=      5-min Rain = 0
KCR1 231843Z 03011KT 15/14 A3004 RMK A01 T01530141  RH  092%=      5-min Rain = 0
KCR1 231844Z 03012KT 15/14 A3004 RMK A01 T01530140  RH  092%=      5-min Rain = 0
KCR1 231845Z 03012KT 15/14 A3004 RMK A01 T01530139  RH  092%=      5-min Rain = 0
KCR1 231846Z 03011KT 15/14 A3004 RMK A01 T01530140  RH  092%=      5-min Rain = 0
KCR1 231847Z 03012KT 15/14 A3004 RMK A01 T01530139  RH  091%=      5-min Rain = 0
KCR1 231848Z 03012KT 15/14 A3004 RMK A01 T01530140  RH  092%=      5-min Rain = 0
KCR1 231849Z 03010KT 15/14 A3004 RMK A01 T01530140  RH  092%=      5-min Rain = 0
KCR1 231850Z 03010KT 15/14 A3004 RMK A01 T01540141  RH  092%=      5-min Rain = 0
KCR1 231851Z 03011KT 15/14 A3004 RMK A01 T01540141  RH  092%=      5-min Rain = 0
KCR1 231852Z 03009KT 15/14 A3004 RMK A01 T01540142  RH  092%=      5-min Rain = 0
KCR1 231853Z 03010KT 16/14 A3004 RMK A01 T01550142  RH  092%=      5-min Rain = 0
KCR1 231854Z 04010KT 15/14 A3004 RMK A01 T01540141  RH  092%=      5-min Rain = 0
KCR1 231855Z 04010KT 16/14 A3004 RMK A01 T01550142  RH  092%=      5-min Rain = 0
KCR1 231856Z 05008KT 16/14 A3004 RMK A01 T01560143  RH  092%=      5-min Rain = 0
KCR1 231857Z 05008KT 16/14 A3004 RMK A01 T01560144  RH  092%=      5-min Rain = 0
KCR1 231858Z 04007KT 16/14 A3004 RMK A01 T01570143  RH  091%=      5-min Rain = 0
KCR1 231859Z 04010KT 16/14 A3004 RMK A01 T01570144  RH  092%=      5-min Rain = 0
KCR1 231900Z 04010KT 16/14 A3004 RMK A01 T01570142  RH  091%=      5-min Rain = 0
KCR1 231901Z 04010KT 16/14 A3004 RMK A01 T01570141  RH  090%=      5-min Rain = 0
KCR1 231902Z 04009KT 16/14 A3004 RMK A01 T01570141  RH  090%=      5-min Rain = 0
KCR1 231903Z 02010KT 16/14 A3004 RMK A01 T01580143  RH  091%=      5-min Rain = 0
KCR1 231904Z 03010KT 16/14 A3003 RMK A01 T01580141  RH  090%=      5-min Rain = 0
KCR1 231905Z 04011KT 16/14 A3003 RMK A01 T01580142  RH  090%=      5-min Rain = 0
KCR1 231906Z 04010KT 16/14 A3003 RMK A01 T01580141  RH  089%=      5-min Rain = 0
KCR1 231907Z 03010KT 16/14 A3003 RMK A01 T01580142  RH  090%=      5-min Rain = 0
KCR1 231908Z 03009KT 16/14 A3003 RMK A01 T01590142  RH  090%=      5-min Rain = 0
KCR1 231909Z 03009KT 16/14 A3003 RMK A01 T01600144  RH  090%=      5-min Rain = 0
KCR1 231910Z 03008KT 16/15 A3003 RMK A01 T01610146  RH  091%=      5-min Rain = 0
KCR1 231911Z 03009KT 16/15 A3003 RMK A01 T01620145  RH  090%=      5-min Rain = 0
KCR1 231912Z 03008KT 16/14 A3003 RMK A01 T01620144  RH  089%=      5-min Rain = 0
KCR1 231913Z 04008KT 16/14 A3004 RMK A01 T01620144  RH  089%=      5-min Rain = 0
KCR1 231914Z 04008KT 16/15 A3004 RMK A01 T01620145  RH  090%=      5-min Rain = 0
KCR1 231915Z 04008KT 16/15 A3004 RMK A01 T01620145  RH  090%=      5-min Rain = 0
KCR1 231916Z 03008KT 16/15 A3004 RMK A01 T01620146  RH  090%=      5-min Rain = 0
KCR1 231917Z 02010KT 16/15 A3004 RMK A01 T01620145  RH  090%=      5-min Rain = 0
KCR1 231918Z 01011KT 16/14 A3004 RMK A01 T01600142  RH  089%=      5-min Rain = 0
KCR1 231919Z 01010KT 16/14 A3004 RMK A01 T01590141  RH  089%=      5-min Rain = 0
KCR1 231920Z 02008KT 16/14 A3004 RMK A01 T01580141  RH  090%=      5-min Rain = 0
KCR1 231921Z 02010KT 16/14 A3004 RMK A01 T01590143  RH  090%=      5-min Rain = 0
KCR1 231922Z 03010KT 16/14 A3004 RMK A01 T01590141  RH  089%=      5-min Rain = 0
KCR1 231923Z 02010KT 16/14 A3004 RMK A01 T01590142  RH  090%=      5-min Rain = 0
KCR1 231924Z 02010KT 16/14 A3004 RMK A01 T01590142  RH  089%=      5-min Rain = 0
KCR1 231925Z 01010KT 16/14 A3004 RMK A01 T01600141  RH  088%=      5-min Rain = 0
KCR1 231926Z 01009KT 16/14 A3004 RMK A01 T01600141  RH  089%=      5-min Rain = 0
KCR1 231927Z 01009KT 16/14 A3004 RMK A01 T01590140  RH  088%=      5-min Rain = 0
KCR1 231928Z 01010KT 16/14 A3004 RMK A01 T01600140  RH  088%=      5-min Rain = 0
KCR1 231929Z 01008KT 16/14 A3004 RMK A01 T01600141  RH  089%=      5-min Rain = 0
KCR1 231930Z 02008KT 16/14 A3004 RMK A01 T01600141  RH  088%=      5-min Rain = 0
KCR1 231931Z 02007KT 16/14 A3004 RMK A01 T01600140  RH  088%=      5-min Rain = 0
KCR1 231932Z 03007KT 16/14 A3004 RMK A01 T01600141  RH  089%=      5-min Rain = 0
KCR1 231933Z 02007KT 16/14 A3004 RMK A01 T01610144  RH  089%=      5-min Rain = 0
KCR1 231934Z 02008KT 16/14 A3004 RMK A01 T01620141  RH  087%=      5-min Rain = 0
KCR1 231935Z 02008KT 16/14 A3004 RMK A01 T01620141  RH  087%=      5-min Rain = 0
KCR1 231936Z 02007KT 16/14 A3004 RMK A01 T01620141  RH  088%=      5-min Rain = 0
KCR1 231937Z 02007KT 16/14 A3004 RMK A01 T01610140  RH  087%=      5-min Rain = 0
KCR1 231938Z 03005KT 16/14 A3004 RMK A01 T01610140  RH  087%=      5-min Rain = 0
KCR1 231939Z 03006KT 16/14 A3004 RMK A01 T01620143  RH  088%=      5-min Rain = 0
KCR1 231940Z 02006KT 16/14 A3004 RMK A01 T01620143  RH  088%=      5-min Rain = 0
KCR1 231941Z 01007KT 16/14 A3004 RMK A01 T01630143  RH  088%=      5-min Rain = 0
KCR1 231942Z 02006KT 16/14 A3004 RMK A01 T01640143  RH  087%=      5-min Rain = 0
KCR1 231943Z 03006KT 16/14 A3004 RMK A01 T01640142  RH  087%=      5-min Rain = 0
KCR1 231944Z 02006KT 16/14 A3004 RMK A01 T01640143  RH  087%=      5-min Rain = 0
KCR1 231945Z 02007KT 17/14 A3004 RMK A01 T01650142  RH  087%=      5-min Rain = 0
KCR1 231946Z 02006KT 17/14 A3004 RMK A01 T01660144  RH  087%=      5-min Rain = 0
KCR1 231947Z 02007KT 17/14 A3004 RMK A01 T01660143  RH  086%=      5-min Rain = 0
KCR1 231948Z 01006KT 17/14 A3004 RMK A01 T01660143  RH  086%=      5-min Rain = 0
KCR1 231949Z 01007KT 17/14 A3004 RMK A01 T01660143  RH  086%=      5-min Rain = 0
KCR1 231950Z 02008KT 17/14 A3004 RMK A01 T01660143  RH  086%=      5-min Rain = 0
KCR1 231951Z 02008KT 17/14 A3004 RMK A01 T01660143  RH  086%=      5-min Rain = 0
KCR1 231952Z 02008KT 17/14 A3004 RMK A01 T01660142  RH  086%=      5-min Rain = 0
KCR1 231953Z 02008KT 17/14 A3004 RMK A01 T01660143  RH  086%=      5-min Rain = 0
KCR1 231954Z 02008KT 17/14 A3004 RMK A01 T01650141  RH  085%=      5-min Rain = 0
KCR1 231955Z 02007KT 17/14 A3004 RMK A01 T01650141  RH  086%=      5-min Rain = 0
KCR1 231956Z 01008KT 17/14 A3004 RMK A01 T01650141  RH  086%=      5-min Rain = 0
KCR1 231957Z 02008KT 17/14 A3003 RMK A01 T01650141  RH  086%=      5-min Rain = 0
KCR1 231958Z 02009KT 17/14 A3004 RMK A01 T01650141  RH  086%=      5-min Rain = 0
KCR1 231959Z 02009KT 17/14 A3004 RMK A01 T01650141  RH  086%=      5-min Rain = 0
KCR1 232000Z 01008KT 17/14 A3004 RMK A01 T01650143  RH  087%=      5-min Rain = 0
KCR1 232001Z 02007KT 17/15 A3004 RMK A01 T01650145  RH  088%=      5-min Rain = 0
KCR1 232002Z 03008KT 17/14 A3004 RMK A01 T01650144  RH  088%=      5-min Rain = 0
KCR1 232003Z 02007KT 17/14 A3004 RMK A01 T01650144  RH  087%=      5-min Rain = 0
KCR1 232004Z 02008KT 17/14 A3004 RMK A01 T01650144  RH  087%=      5-min Rain = 0
KCR1 232005Z 02009KT 17/15 A3004 RMK A01 T01650145  RH  088%=      5-min Rain = 0
KCR1 232006Z 01006KT 17/15 A3004 RMK A01 T01650145  RH  088%=      5-min Rain = 0
KCR1 232007Z 01008KT 17/15 A3004 RMK A01 T01650146  RH  089%=      5-min Rain = 0
KCR1 232008Z 01007KT 16/14 A3004 RMK A01 T01640142  RH  087%=      5-min Rain = 0
KCR1 232009Z 01007KT 16/14 A3004 RMK A01 T01640142  RH  087%=      5-min Rain = 0
KCR1 232010Z 02007KT 16/14 A3004 RMK A01 T01640142  RH  087%=      5-min Rain = 0
KCR1 232011Z 02006KT 17/14 A3004 RMK A01 T01650142  RH  086%=      5-min Rain = 0
KCR1 232012Z 03007KT 17/14 A3004 RMK A01 T01660143  RH  086%=      5-min Rain = 0
KCR1 232013Z 03006KT 17/14 A3004 RMK A01 T01670141  RH  085%=      5-min Rain = 0
KCR1 232014Z 04005KT 17/14 A3004 RMK A01 T01680142  RH  085%=      5-min Rain = 0
KCR1 232015Z 05006KT 17/14 A3003 RMK A01 T01690144  RH  085%=      5-min Rain = 0
KCR1 232016Z 05007KT 17/14 A3003 RMK A01 T01710143  RH  083%=      5-min Rain = 0
KCR1 232017Z 04008KT 17/14 A3003 RMK A01 T01720143  RH  083%=      5-min Rain = 0
KCR1 232018Z 04006KT 17/14 A3003 RMK A01 T01730143  RH  082%=      5-min Rain = 0
KCR1 232019Z 04007KT 17/14 A3003 RMK A01 T01740141  RH  081%=      5-min Rain = 0
KCR1 232020Z 04007KT 17/14 A3003 RMK A01 T01740142  RH  081%=      5-min Rain = 0
KCR1 232021Z 05007KT 17/14 A3003 RMK A01 T01740143  RH  082%=      5-min Rain = 0
KCR1 232022Z 03006KT 18/14 A3003 RMK A01 T01750143  RH  081%=      5-min Rain = 0
KCR1 232023Z 03006KT 18/14 A3003 RMK A01 T01750144  RH  082%=      5-min Rain = 0
KCR1 232024Z 05006KT 18/15 A3003 RMK A01 T01760145  RH  082%=      5-min Rain = 0
KCR1 232025Z 04006KT 18/14 A3003 RMK A01 T01760143  RH  081%=      5-min Rain = 0
KCR1 232026Z 03006KT 18/14 A3003 RMK A01 T01750144  RH  082%=      5-min Rain = 0
KCR1 232027Z 02008KT 18/15 A3003 RMK A01 T01760145  RH  082%=      5-min Rain = 0
KCR1 232028Z 02007KT 18/14 A3003 RMK A01 T01760142  RH  080%=      5-min Rain = 0
KCR1 232029Z 03007KT 18/14 A3003 RMK A01 T01750140  RH  080%=      5-min Rain = 0
KCR1 232030Z 03008KT 17/14 A3003 RMK A01 T01740141  RH  081%=      5-min Rain = 0
KCR1 232031Z 03008KT 17/14 A3003 RMK A01 T01740142  RH  081%=      5-min Rain = 0
KCR1 232032Z 03008KT 17/14 A3003 RMK A01 T01740144  RH  082%=      5-min Rain = 0
KCR1 232033Z 02007KT 18/14 A3003 RMK A01 T01750144  RH  082%=      5-min Rain = 0
KCR1 232034Z 03007KT 18/14 A3003 RMK A01 T01750142  RH  081%=      5-min Rain = 0
KCR1 232035Z 05008KT 18/14 A3003 RMK A01 T01750144  RH  082%=      5-min Rain = 0
KCR1 232036Z 03009KT 18/15 A3003 RMK A01 T01760146  RH  083%=      5-min Rain = 0
KCR1 232037Z 03008KT 18/14 A3003 RMK A01 T01760143  RH  081%=      5-min Rain = 0
KCR1 232038Z 02008KT 18/14 A3003 RMK A01 T01760143  RH  081%=      5-min Rain = 0
KCR1 232039Z 03008KT 18/15 A3003 RMK A01 T01750145  RH  083%=      5-min Rain = 0
KCR1 232040Z 03008KT 18/14 A3003 RMK A01 T01750144  RH  082%=      5-min Rain = 0
KCR1 232041Z 03009KT 17/14 A3003 RMK A01 T01740144  RH  082%=      5-min Rain = 0
KCR1 232042Z 03009KT 17/14 A3003 RMK A01 T01740142  RH  082%=      5-min Rain = 0
KCR1 232043Z 04009KT 17/14 A3003 RMK A01 T01730139  RH  081%=      5-min Rain = 0
KCR1 232044Z 04008KT 17/14 A3003 RMK A01 T01720141  RH  082%=      5-min Rain = 0
KCR1 232045Z 04009KT 17/14 A3003 RMK A01 T01720140  RH  081%=      5-min Rain = 0
KCR1 232046Z 04008KT 17/14 A3003 RMK A01 T01720141  RH  082%=      5-min Rain = 0
KCR1 232047Z 04009KT 17/14 A3003 RMK A01 T01720142  RH  082%=      5-min Rain = 0
KCR1 232048Z 04008KT 17/14 A3003 RMK A01 T01720140  RH  081%=      5-min Rain = 0
KCR1 232049Z 03008KT 17/14 A3003 RMK A01 T01730142  RH  082%=      5-min Rain = 0
KCR1 232050Z 04009KT 17/14 A3003 RMK A01 T01730142  RH  082%=      5-min Rain = 0
KCR1 232051Z 02010KT 17/15 A3003 RMK A01 T01730146  RH  084%=      5-min Rain = 0
KCR1 232052Z 02012KT 17/14 A3003 RMK A01 T01730142  RH  082%=      5-min Rain = 0
KCR1 232053Z 02011KT 17/14 A3003 RMK A01 T01710141  RH  083%=      5-min Rain = 0
KCR1 232054Z 02011KT 17/14 A3003 RMK A01 T01700141  RH  083%=      5-min Rain = 0
KCR1 232055Z 02011KT 17/14 A3003 RMK A01 T01700140  RH  083%=      5-min Rain = 0
KCR1 232056Z 03010KT 17/14 A3003 RMK A01 T01690140  RH  083%=      5-min Rain = 0
KCR1 232057Z 02009KT 17/14 A3003 RMK A01 T01690140  RH  083%=      5-min Rain = 0
KCR1 232058Z 01010KT 17/14 A3003 RMK A01 T01700143  RH  084%=      5-min Rain = 0
KCR1 232059Z 01010KT 17/14 A3003 RMK A01 T01700141  RH  083%=      5-min Rain = 0
KCR1 232100Z 01009KT 17/14 A3002 RMK A01 T01710142  RH  083%=      5-min Rain = 0
KCR1 232101Z 01010KT 17/14 A3002 RMK A01 T01710140  RH  082%=      5-min Rain = 0
KCR1 232102Z 01009KT 17/14 A3002 RMK A01 T01710140  RH  082%=      5-min Rain = 0
KCR1 232103Z 01010KT 17/14 A3002 RMK A01 T01720142  RH  083%=      5-min Rain = 0
KCR1 232104Z 02010KT 17/14 A3002 RMK A01 T01720140  RH  081%=      5-min Rain = 0
KCR1 232105Z 02009KT 17/14 A3002 RMK A01 T01720142  RH  082%=      5-min Rain = 0
KCR1 232106Z 01010KT 17/14 A3002 RMK A01 T01730140  RH  081%=      5-min Rain = 0
KCR1 232107Z 02009KT 17/14 A3002 RMK A01 T01730141  RH  082%=      5-min Rain = 0
KCR1 232108Z 02010KT 17/14 A3002 RMK A01 T01730140  RH  081%=      5-min Rain = 0
KCR1 232109Z 02010KT 17/14 A3002 RMK A01 T01730138  RH  080%=      5-min Rain = 0
KCR1 232110Z 01011KT 17/14 A3002 RMK A01 T01730141  RH  081%=      5-min Rain = 0
KCR1 232111Z 02010KT 17/14 A3002 RMK A01 T01730142  RH  082%=      5-min Rain = 0
KCR1 232112Z 03010KT 17/14 A3002 RMK A01 T01730142  RH  082%=      5-min Rain = 0
KCR1 232113Z 02009KT 17/14 A3002 RMK A01 T01730143  RH  082%=      5-min Rain = 0
KCR1 232114Z 01009KT 17/14 A3002 RMK A01 T01740142  RH  082%=      5-min Rain = 0
KCR1 232115Z 02010KT 17/14 A3002 RMK A01 T01740141  RH  081%=      5-min Rain = 0
KCR1 232116Z 02009KT 18/14 A3002 RMK A01 T01750144  RH  082%=      5-min Rain = 0
KCR1 232117Z 01010KT 18/14 A3002 RMK A01 T01760142  RH  081%=      5-min Rain = 0
KCR1 232118Z 02009KT 18/14 A3002 RMK A01 T01760139  RH  079%=      5-min Rain = 0
KCR1 232119Z 03009KT 18/14 A3002 RMK A01 T01750140  RH  080%=      5-min Rain = 0
KCR1 232120Z 01009KT 18/14 A3001 RMK A01 T01760143  RH  081%=      5-min Rain = 0
KCR1 232121Z 01010KT 18/14 A3001 RMK A01 T01770143  RH  080%=      5-min Rain = 0
KCR1 232122Z 02010KT 18/14 A3001 RMK A01 T01770140  RH  079%=      5-min Rain = 0
KCR1 232123Z 02010KT 18/14 A3001 RMK A01 T01760139  RH  079%=      5-min Rain = 0
KCR1 232124Z 02009KT 18/14 A3001 RMK A01 T01760139  RH  079%=      5-min Rain = 0
KCR1 232125Z 02008KT 18/14 A3001 RMK A01 T01760141  RH  080%=      5-min Rain = 0
KCR1 232126Z 02008KT 18/14 A3001 RMK A01 T01770141  RH  079%=      5-min Rain = 0
KCR1 232127Z 02009KT 18/14 A3001 RMK A01 T01770139  RH  078%=      5-min Rain = 0
KCR1 232128Z 01010KT 18/14 A3001 RMK A01 T01780140  RH  079%=      5-min Rain = 0
KCR1 232129Z 01009KT 18/14 A3001 RMK A01 T01780140  RH  078%=      5-min Rain = 0
KCR1 232130Z 01010KT 18/14 A3001 RMK A01 T01780140  RH  078%=      5-min Rain = 0
KCR1 232131Z 01010KT 18/14 A3001 RMK A01 T01780137  RH  077%=      5-min Rain = 0
KCR1 232132Z 01010KT 18/14 A3001 RMK A01 T01780139  RH  078%=      5-min Rain = 0
KCR1 232133Z 01011KT 18/14 A3001 RMK A01 T01780141  RH  079%=      5-min Rain = 0
KCR1 232134Z 03011KT 18/14 A3001 RMK A01 T01770139  RH  078%=      5-min Rain = 0
KCR1 232135Z 02008KT 18/14 A3001 RMK A01 T01780142  RH  080%=      5-min Rain = 0
KCR1 232136Z 02010KT 18/15 A3001 RMK A01 T01800145  RH  080%=      5-min Rain = 0
KCR1 232137Z 03009KT 18/14 A3001 RMK A01 T01800140  RH  077%=      5-min Rain = 0
KCR1 232138Z 03007KT 18/14 A3001 RMK A01 T01800141  RH  078%=      5-min Rain = 0
KCR1 232139Z 02008KT 18/14 A3001 RMK A01 T01800142  RH  078%=      5-min Rain = 0
KCR1 232140Z 02008KT 18/15 A3001 RMK A01 T01800145  RH  080%=      5-min Rain = 0
KCR1 232141Z 01009KT 18/14 A3001 RMK A01 T01800143  RH  079%=      5-min Rain = 0
KCR1 232142Z 01009KT 18/14 A30 RMK A01 T01800141  RH  078%=      5-min Rain = 0
KCR1 232143Z 02009KT 18/14 A30 RMK A01 T01790142  RH  079%=      5-min Rain = 0
KCR1 232144Z 01011KT 18/14 A30 RMK A01 T01790140  RH  078%=      5-min Rain = 0
KCR1 232145Z 02008KT 18/14 A30 RMK A01 T01770138  RH  077%=      5-min Rain = 0
KCR1 232146Z 02009KT 18/14 A30 RMK A01 T01770140  RH  079%=      5-min Rain = 0
KCR1 232147Z 02009KT 18/14 A30 RMK A01 T01770136  RH  077%=      5-min Rain = 0
KCR1 232148Z 03009KT 18/14 A30 RMK A01 T01770136  RH  077%=      5-min Rain = 0
KCR1 232149Z 03008KT 18/14 A30 RMK A01 T01770138  RH  078%=      5-min Rain = 0
KCR1 232150Z 03009KT 18/14 A30 RMK A01 T01770142  RH  080%=      5-min Rain = 0
KCR1 232151Z 03010KT 18/15 A30 RMK A01 T01790145  RH  081%=      5-min Rain = 0
KCR1 232152Z 04009KT 18/14 A30 RMK A01 T01790143  RH  079%=      5-min Rain = 0
KCR1 232153Z 04011KT 18/14 A30 RMK A01 T01780142  RH  079%=      5-min Rain = 0
KCR1 232154Z 03010KT 18/14 A30 RMK A01 T01770141  RH  079%=      5-min Rain = 0
KCR1 232155Z 03009KT 18/14 A30 RMK A01 T01770141  RH  080%=      5-min Rain = 0
KCR1 232156Z 02010KT 18/14 A30 RMK A01 T01760140  RH  079%=      5-min Rain = 0
KCR1 232157Z 01009KT 18/14 A30 RMK A01 T01760142  RH  081%=      5-min Rain = 0
KCR1 232158Z 01010KT 18/14 A30 RMK A01 T01760140  RH  080%=      5-min Rain = 0
KCR1 232159Z 02011KT 18/14 A30 RMK A01 T01760142  RH  081%=      5-min Rain = 0
KCR1 232200Z 02011KT 18/14 A30 RMK A01 T01760140  RH  080%=      5-min Rain = 0
KCR1 232201Z 02010KT 18/14 A30 RMK A01 T01750140  RH  080%=      5-min Rain = 0
KCR1 232202Z 02010KT 18/14 A30 RMK A01 T01750142  RH  081%=      5-min Rain = 0
KCR1 232203Z 02009KT 18/14 A30 RMK A01 T01760143  RH  081%=      5-min Rain = 0
KCR1 232204Z 02010KT 18/14 A30 RMK A01 T01770144  RH  081%=      5-min Rain = 0
KCR1 232205Z 02011KT 18/14 A30 RMK A01 T01770142  RH  080%=      5-min Rain = 0
KCR1 232206Z 03012KT 18/14 A30 RMK A01 T01770142  RH  080%=      5-min Rain = 0
KCR1 232207Z 01010KT 18/14 A30 RMK A01 T01770139  RH  078%=      5-min Rain = 0
KCR1 232208Z 01009KT 18/14 A30 RMK A01 T01770141  RH  080%=      5-min Rain = 0
KCR1 232209Z 01009KT 18/15 A30 RMK A01 T01770145  RH  081%=      5-min Rain = 0
KCR1 232210Z 01010KT 18/14 A30 RMK A01 T01790143  RH  080%=      5-min Rain = 0
KCR1 232211Z 02010KT 18/14 A30 RMK A01 T01800144  RH  080%=      5-min Rain = 0
KCR1 232212Z 01009KT 18/14 A30 RMK A01 T01810144  RH  079%=      5-min Rain = 0
KCR1 232213Z 02009KT 18/14 A30 RMK A01 T01820143  RH  078%=      5-min Rain = 0
KCR1 232214Z 03010KT 18/14 A30 RMK A01 T01810140  RH  077%=      5-min Rain = 0
KCR1 232215Z 02011KT 18/14 A30 RMK A01 T01810143  RH  079%=      5-min Rain = 0
KCR1 232216Z 01012KT 18/14 A30 RMK A01 T01810141  RH  078%=      5-min Rain = 0
KCR1 232217Z 00010KT 18/14 A30 RMK A01 T01800141  RH  078%=      5-min Rain = 0
KCR1 232218Z 01012KT 18/14 A30 RMK A01 T01800140  RH  077%=      5-min Rain = 0
KCR1 232219Z 01011KT 18/14 A30 RMK A01 T01800138  RH  077%=      5-min Rain = 0
KCR1 232220Z 01011KT 18/14 A30 RMK A01 T01790138  RH  077%=      5-min Rain = 0
KCR1 232221Z 02011KT 18/14 A30 RMK A01 T01790139  RH  078%=      5-min Rain = 0
KCR1 232222Z 02011KT 18/14 A30 RMK A01 T01780137  RH  077%=      5-min Rain = 0
KCR1 232223Z 02010KT 18/14 A30 RMK A01 T01780139  RH  078%=      5-min Rain = 0
KCR1 232224Z 01011KT 18/14 A30 RMK A01 T01770142  RH  080%=      5-min Rain = 0
KCR1 232225Z 00011KT 18/14 A30 RMK A01 T01780142  RH  080%=      5-min Rain = 0
KCR1 232226Z 00011KT 18/14 A30 RMK A01 T01770140  RH  079%=      5-min Rain = 0
KCR1 232227Z 02011KT 18/14 A30 RMK A01 T01770142  RH  080%=      5-min Rain = 0
KCR1 232228Z 02012KT 18/14 A30 RMK A01 T01760139  RH  079%=      5-min Rain = 0
KCR1 232229Z 02012KT 18/14 A30 RMK A01 T01750138  RH  079%=      5-min Rain = 0
KCR1 232230Z 02013KT 18/14 A30 RMK A01 T01750137  RH  078%=      5-min Rain = 0
KCR1 232231Z 01012KT 17/14 A30 RMK A01 T01740137  RH  079%=      5-min Rain = 0
KCR1 232232Z 02012KT 17/14 A30 RMK A01 T01740137  RH  079%=      5-min Rain = 0
KCR1 232233Z 02011KT 17/14 A30 RMK A01 T01740136  RH  078%=      5-min Rain = 0
KCR1 232234Z 01012KT 17/14 A30 RMK A01 T01730137  RH  079%=      5-min Rain = 0
KCR1 232235Z 01012KT 17/14 A30 RMK A01 T01730140  RH  081%=      5-min Rain = 0
KCR1 232236Z 00012KT 17/14 A30 RMK A01 T01740139  RH  080%=      5-min Rain = 0
KCR1 232237Z 01012KT 17/14 A2999 RMK A01 T01730137  RH  080%=      5-min Rain = 0
KCR1 232238Z 01011KT 17/14 A30 RMK A01 T01730140  RH  081%=      5-min Rain = 0
KCR1 232239Z 02013KT 17/14 A30 RMK A01 T01730139  RH  080%=      5-min Rain = 0
KCR1 232240Z 02010KT 17/14 A30 RMK A01 T01730139  RH  080%=      5-min Rain = 0
KCR1 232241Z 02009KT 17/14 A30 RMK A01 T01740142  RH  081%=      5-min Rain = 0
KCR1 232242Z 02011KT 18/14 A30 RMK A01 T01750141  RH  080%=      5-min Rain = 0
KCR1 232243Z 01010G15KT 18/14 A30 RMK A01 T01750142  RH  081%=      5-min Rain = 0
KCR1 232244Z 00014KT 18/14 A30 RMK A01 T01750138  RH  079%=      5-min Rain = 0
KCR1 232245Z 01013KT 17/14 A30 RMK A01 T01740137  RH  079%=      5-min Rain = 0
KCR1 232246Z 01012KT 17/14 A30 RMK A01 T01730140  RH  081%=      5-min Rain = 0
KCR1 232247Z 02012KT 17/14 A2999 RMK A01 T01730138  RH  080%=      5-min Rain = 0
KCR1 232248Z 02012KT 17/14 A2999 RMK A01 T01740139  RH  080%=      5-min Rain = 0
KCR1 232249Z 02011KT 17/14 A2999 RMK A01 T01730139  RH  080%=      5-min Rain = 0
KCR1 232250Z 02012KT 17/14 A2999 RMK A01 T01730138  RH  080%=      5-min Rain = 0
KCR1 232251Z 01010KT 17/14 A2999 RMK A01 T01730139  RH  080%=      5-min Rain = 0
KCR1 232252Z 36011KT 17/14 A2999 RMK A01 T01730142  RH  082%=      5-min Rain = 0
KCR1 232253Z 00012KT 17/14 A2999 RMK A01 T01720139  RH  081%=      5-min Rain = 0
KCR1 232254Z 01010KT 17/14 A2999 RMK A01 T01720142  RH  082%=      5-min Rain = 0
KCR1 232255Z 00012KT 17/14 A2999 RMK A01 T01730141  RH  082%=      5-min Rain = 0
KCR1 232256Z 01012KT 17/14 A2999 RMK A01 T01730140  RH  081%=      5-min Rain = 0
KCR1 232257Z 01013KT 17/14 A2999 RMK A01 T01720140  RH  082%=      5-min Rain = 0
KCR1 232258Z 01012KT 17/14 A2999 RMK A01 T01710138  RH  081%=      5-min Rain = 0
KCR1 232259Z 01014KT 17/14 A2999 RMK A01 T01700139  RH  082%=      5-min Rain = 0
KCR1 232300Z 01012KT 17/14 A2999 RMK A01 T01700138  RH  081%=      5-min Rain = 0
KCR1 232301Z 01011KT 17/14 A2999 RMK A01 T01700137  RH  081%=      5-min Rain = 0
KCR1 232302Z 01011KT 17/14 A2999 RMK A01 T01700138  RH  081%=      5-min Rain = 0
KCR1 232303Z 02011KT 17/14 A2999 RMK A01 T01700139  RH  082%=      5-min Rain = 0
KCR1 232304Z 00010KT 17/14 A2999 RMK A01 T01700139  RH  082%=      5-min Rain = 0
KCR1 232305Z 36011KT 17/14 A2999 RMK A01 T01700139  RH  082%=      5-min Rain = 0
KCR1 232306Z 36012KT 17/14 A2999 RMK A01 T01700138  RH  082%=      5-min Rain = 0
KCR1 232307Z 01012KT 17/14 A2999 RMK A01 T01700138  RH  082%=      5-min Rain = 0
KCR1 232308Z 01012KT 17/14 A2999 RMK A01 T01700139  RH  082%=      5-min Rain = 0
KCR1 232309Z 01010KT 17/14 A2999 RMK A01 T01700138  RH  082%=      5-min Rain = 0
KCR1 232310Z 01010KT 17/14 A2999 RMK A01 T01700141  RH  083%=      5-min Rain = 0
KCR1 232311Z 01011KT 17/14 A2999 RMK A01 T01700141  RH  083%=      5-min Rain = 0
KCR1 232312Z 01012KT 17/14 A2998 RMK A01 T01710141  RH  083%=      5-min Rain = 0
KCR1 232313Z 01014KT 17/14 A2998 RMK A01 T01710139  RH  082%=      5-min Rain = 0
KCR1 232314Z 00012KT 17/14 A2998 RMK A01 T01700139  RH  082%=      5-min Rain = 0
KCR1 232315Z 01013KT 17/14 A2998 RMK A01 T01700139  RH  082%=      5-min Rain = 0
KCR1 232316Z 00011KT 17/14 A2998 RMK A01 T01690140  RH  083%=      5-min Rain = 0
KCR1 232317Z 35011KT 17/14 A2998 RMK A01 T01700144  RH  084%=      5-min Rain = 0
KCR1 232318Z 35014KT 17/14 A2998 RMK A01 T01700140  RH  082%=      5-min Rain = 0
KCR1 232319Z 36012KT 17/14 A2998 RMK A01 T01690138  RH  082%=      5-min Rain = 0
KCR1 232320Z 36013KT 17/14 A2998 RMK A01 T01690140  RH  083%=      5-min Rain = 0
KCR1 232321Z 36011G16KT 17/14 A2998 RMK A01 T01690139  RH  083%=      5-min Rain = 0
KCR1 232322Z 35013KT 17/14 A2999 RMK A01 T01690139  RH  083%=      5-min Rain = 0
KCR1 232323Z 35012KT 17/14 A2999 RMK A01 T01680137  RH  082%=      5-min Rain = 0
KCR1 232324Z 36013KT 17/14 A2999 RMK A01 T01680137  RH  082%=      5-min Rain = 0
KCR1 232325Z 01013KT 17/14 A2999 RMK A01 T01670136  RH  082%=      5-min Rain = 0
KCR1 232326Z 00010KT 17/14 A2999 RMK A01 T01670138  RH  083%=      5-min Rain = 0
KCR1 232327Z 00012KT 17/14 A2999 RMK A01 T01670137  RH  082%=      5-min Rain = 0
KCR1 232328Z 01010KT 17/14 A2999 RMK A01 T01680137  RH  082%=      5-min Rain = 0
KCR1 232329Z 01011KT 17/14 A2999 RMK A01 T01680138  RH  083%=      5-min Rain = 0
KCR1 232330Z 00009KT 17/14 A30 RMK A01 T01670139  RH  083%=      5-min Rain = 0
KCR1 232331Z 00011KT 17/14 A30 RMK A01 T01670138  RH  083%=      5-min Rain = 0
KCR1 232332Z 36011KT 17/14 A30 RMK A01 T01670136  RH  082%=      5-min Rain = 0
KCR1 232333Z 00011KT 17/14 A30 RMK A01 T01660136  RH  083%=      5-min Rain = 0
KCR1 232334Z 00010KT 17/14 A30 RMK A01 T01660135  RH  082%=      5-min Rain = 0
KCR1 232335Z 01008KT 17/14 A30 RMK A01 T01650136  RH  083%=      5-min Rain = 0
KCR1 232336Z 01010KT 17/14 A30 RMK A01 T01650137  RH  084%=      5-min Rain = 0
KCR1 232337Z 01012KT 17/13 A30 RMK A01 T01650134  RH  082%=      5-min Rain = 0
KCR1 232338Z 00012KT 17/13 A30 RMK A01 T01650134  RH  082%=      5-min Rain = 0
KCR1 232339Z 00012KT 17/13 A30 RMK A01 T01650134  RH  082%=      5-min Rain = 0
KCR1 232340Z 01010KT 17/13 A30 RMK A01 T01650134  RH  082%=      5-min Rain = 0
KCR1 232341Z 00009KT 17/14 A30 RMK A01 T01650137  RH  083%=      5-min Rain = 0
KCR1 232342Z 01010KT 17/14 A30 RMK A01 T01650137  RH  084%=      5-min Rain = 0
KCR1 232343Z 00011KT 17/14 A30 RMK A01 T01650137  RH  084%=      5-min Rain = 0
KCR1 232344Z 00009KT 17/14 A30 RMK A01 T01650136  RH  083%=      5-min Rain = 0
KCR1 232345Z 01010KT 17/14 A30 RMK A01 T01650137  RH  084%=      5-min Rain = 0
KCR1 232346Z 01010KT 17/14 A30 RMK A01 T01650137  RH  083%=      5-min Rain = 0
KCR1 232347Z 02011KT 17/14 A30 RMK A01 T01650136  RH  083%=      5-min Rain = 0
KCR1 232348Z 01011KT 16/14 A30 RMK A01 T01640136  RH  083%=      5-min Rain = 0
KCR1 232349Z 01010KT 16/14 A30 RMK A01 T01640135  RH  083%=      5-min Rain = 0
KCR1 232350Z 01010KT 17/14 A30 RMK A01 T01650136  RH  083%=      5-min Rain = 0
KCR1 232351Z 01009KT 17/14 A30 RMK A01 T01650136  RH  083%=      5-min Rain = 0
KCR1 232352Z 01009KT 17/14 A30 RMK A01 T01650137  RH  084%=      5-min Rain = 0
KCR1 232353Z 01009KT 17/14 A30 RMK A01 T01650137  RH  084%=      5-min Rain = 0
KCR1 232354Z 01009KT 17/14 A30 RMK A01 T01650138  RH  084%=      5-min Rain = 0
KCR1 232355Z 02008KT 17/14 A30 RMK A01 T01650137  RH  084%=      5-min Rain = 0
KCR1 232356Z 01009KT 17/14 A30 RMK A01 T01650136  RH  083%=      5-min Rain = 0
KCR1 232357Z 01007KT 17/14 A30 RMK A01 T01650138  RH  084%=      5-min Rain = 0
KCR1 232358Z 01010KT 16/14 A30 RMK A01 T01640138  RH  084%=      5-min Rain = 0
KCR1 232359Z 02009KT 17/14 A30 RMK A01 T01650136  RH  083%=      5-min Rain = 0
KCR1 240000Z 02007KT 17/14 A30 RMK A01 T01650138  RH  084%=      5-min Rain = 0
KCR1 240001Z 02009KT 17/14 A30 RMK A01 T01650138  RH  084%=      5-min Rain = 0
KCR1 240002Z 02010KT 17/14 A30 RMK A01 T01650136  RH  083%=      5-min Rain = 0
KCR1 240003Z 01009KT 16/14 A30 RMK A01 T01640135  RH  083%=      5-min Rain = 0
KCR1 240004Z 02010KT 16/14 A30 RMK A01 T01640136  RH  083%=      5-min Rain = 0
KCR1 240005Z 02009KT 16/14 A30 RMK A01 T01640136  RH  083%=      5-min Rain = 0
KCR1 240006Z 02011KT 16/14 A30 RMK A01 T01640136  RH  084%=      5-min Rain = 0
KCR1 240007Z 02010KT 16/14 A30 RMK A01 T01640136  RH  083%=      5-min Rain = 0
KCR1 240008Z 02010KT 16/14 A30 RMK A01 T01640137  RH  084%=      5-min Rain = 0
KCR1 240009Z 02009KT 16/14 A30 RMK A01 T01640137  RH  084%=      5-min Rain = 0
KCR1 240010Z 01011KT 16/14 A2999 RMK A01 T01640137  RH  084%=      5-min Rain = 0
KCR1 240011Z 01011KT 16/14 A2999 RMK A01 T01630136  RH  084%=      5-min Rain = 0
KCR1 240012Z 01011KT 16/14 A2999 RMK A01 T01640137  RH  084%=      5-min Rain = 0
KCR1 240013Z 01011KT 16/14 A2999 RMK A01 T01640137  RH  084%=      5-min Rain = 0
KCR1 240014Z 01010KT 16/14 A2999 RMK A01 T01630137  RH  085%=      5-min Rain = 0
KCR1 240015Z 02010KT 16/14 A2999 RMK A01 T01630138  RH  085%=      5-min Rain = 0
KCR1 240016Z 01010KT 16/14 A2999 RMK A01 T01630137  RH  085%=      5-min Rain = 0
KCR1 240017Z 00012KT 16/14 A2999 RMK A01 T01630137  RH  084%=      5-min Rain = 0
KCR1 240018Z 01012KT 16/14 A2999 RMK A01 T01630137  RH  084%=      5-min Rain = 0
KCR1 240019Z 01011KT 16/14 A2999 RMK A01 T01630137  RH  084%=      5-min Rain = 0
KCR1 240020Z 01010KT 16/14 A2999 RMK A01 T01630137  RH  085%=      5-min Rain = 0
KCR1 240021Z 00009KT 16/14 A2998 RMK A01 T01630138  RH  085%=      5-min Rain = 0
KCR1 240022Z 00010KT 16/14 A2998 RMK A01 T01630138  RH  085%=      5-min Rain = 0
KCR1 240023Z 01008KT 16/14 A2998 RMK A01 T01630138  RH  085%=      5-min Rain = 0
KCR1 240024Z 01010KT 16/14 A2998 RMK A01 T01620138  RH  085%=      5-min Rain = 0
KCR1 240025Z 00012KT 16/14 A2998 RMK A01 T01620136  RH  085%=      5-min Rain = 0
KCR1 240026Z 00010KT 16/14 A2998 RMK A01 T01620136  RH  085%=      5-min Rain = 0
KCR1 240027Z 01010KT 16/14 A2998 RMK A01 T01620137  RH  085%=      5-min Rain = 0
KCR1 240028Z 01011KT 16/14 A2998 RMK A01 T01620136  RH  085%=      5-min Rain = 0
KCR1 240029Z 00009KT 16/14 A2998 RMK A01 T01620137  RH  085%=      5-min Rain = 0
KCR1 240030Z 01008KT 16/14 A2998 RMK A01 T01620138  RH  086%=      5-min Rain = 0
KCR1 240031Z 01009KT 16/14 A2998 RMK A01 T01620138  RH  086%=      5-min Rain = 0
KCR1 240032Z 01010KT 16/14 A2998 RMK A01 T01620137  RH  085%=      5-min Rain = 0
KCR1 240033Z 01010KT 16/14 A2998 RMK A01 T01610136  RH  085%=      5-min Rain = 0
KCR1 240034Z 01010KT 16/14 A2998 RMK A01 T01620137  RH  085%=      5-min Rain = 0
KCR1 240035Z 01010KT 16/14 A2998 RMK A01 T01610137  RH  085%=      5-min Rain = 0
KCR1 240036Z 01011KT 16/14 A2998 RMK A01 T01610137  RH  085%=      5-min Rain = 0
KCR1 240037Z 01012KT 16/14 A2998 RMK A01 T01610136  RH  085%=      5-min Rain = 0
KCR1 240038Z 01011KT 16/14 A2998 RMK A01 T01610136  RH  085%=      5-min Rain = 0
KCR1 240039Z 00011KT 16/14 A2998 RMK A01 T01610136  RH  085%=      5-min Rain = 0
KCR1 240040Z 00011KT 16/14 A2998 RMK A01 T01610135  RH  085%=      5-min Rain = 0
KCR1 240041Z 00012KT 16/14 A2999 RMK A01 T01610136  RH  085%=      5-min Rain = 0
KCR1 240042Z 00011KT 16/14 A2999 RMK A01 T01610136  RH  085%=      5-min Rain = 0
KCR1 240043Z 01009KT 16/14 A2999 RMK A01 T01610136  RH  085%=      5-min Rain = 0
KCR1 240044Z 01008KT 16/14 A2999 RMK A01 T01610138  RH  086%=      5-min Rain = 0
KCR1 240045Z 00009KT 16/14 A2999 RMK A01 T01610138  RH  086%=      5-min Rain = 0
KCR1 240046Z 00008KT 16/14 A2999 RMK A01 T01610138  RH  086%=      5-min Rain = 0
KCR1 240047Z 00009KT 16/14 A2999 RMK A01 T01600138  RH  086%=      5-min Rain = 0
KCR1 240048Z 00010KT 16/14 A2999 RMK A01 T01600136  RH  085%=      5-min Rain = 0
KCR1 240049Z 00010KT 16/14 A2999 RMK A01 T01610136  RH  086%=      5-min Rain = 0
KCR1 240050Z 00010KT 16/14 A2999 RMK A01 T01600136  RH  086%=      5-min Rain = 0
KCR1 240051Z 01010KT 16/14 A2998 RMK A01 T01600136  RH  086%=      5-min Rain = 0
KCR1 240052Z 00010KT 16/14 A2998 RMK A01 T01600136  RH  086%=      5-min Rain = 0
KCR1 240053Z 00009KT 16/14 A2998 RMK A01 T01600136  RH  086%=      5-min Rain = 0
KCR1 240054Z 01011KT 16/14 A2998 RMK A01 T01600136  RH  085%=      5-min Rain = 0
KCR1 240055Z 01012KT 16/14 A2998 RMK A01 T01600135  RH  085%=      5-min Rain = 0
KCR1 240056Z 01011KT 16/13 A2998 RMK A01 T01600134  RH  085%=      5-min Rain = 0
KCR1 240057Z 01009KT 16/14 A2998 RMK A01 T01590135  RH  085%=      5-min Rain = 0
KCR1 240058Z 02007KT 16/14 A2998 RMK A01 T01590136  RH  086%=      5-min Rain = 0
KCR1 240059Z 02009KT 16/14 A2998 RMK A01 T01590136  RH  086%=      5-min Rain = 0
KCR1 240100Z 02009KT 16/14 A2998 RMK A01 T01590136  RH  086%=      5-min Rain = 0
KCR1 240101Z 02008KT 16/14 A2999 RMK A01 T01590136  RH  086%=      5-min Rain = 0
KCR1 240102Z 02008KT 16/14 A2999 RMK A01 T01590136  RH  086%=      5-min Rain = 0
KCR1 240103Z 02007KT 16/14 A2999 RMK A01 T01590136  RH  086%=      5-min Rain = 0
KCR1 240104Z 02008KT 16/14 A2999 RMK A01 T01590136  RH  086%=      5-min Rain = 0
KCR1 240105Z 02007KT 16/14 A2999 RMK A01 T01590136  RH  086%=      5-min Rain = 0
KCR1 240106Z 02007KT 16/14 A2999 RMK A01 T01590137  RH  087%=      5-min Rain = 0
KCR1 240107Z 02007KT 16/14 A2999 RMK A01 T01590137  RH  087%=      5-min Rain = 0
KCR1 240108Z 02009KT 16/14 A2999 RMK A01 T01590136  RH  086%=      5-min Rain = 0
KCR1 240109Z 02009KT 16/14 A2998 RMK A01 T01590135  RH  086%=      5-min Rain = 0
KCR1 240110Z 01008KT 16/14 A2998 RMK A01 T01590136  RH  087%=      5-min Rain = 0
KCR1 240111Z 01008KT 16/14 A2998 RMK A01 T01590136  RH  087%=      5-min Rain = 0
KCR1 240112Z 01008KT 16/14 A2998 RMK A01 T01590137  RH  087%=      5-min Rain = 0
KCR1 240113Z 01008KT 16/14 A2998 RMK A01 T01590137  RH  087%=      5-min Rain = 0
KCR1 240114Z 02008KT 16/14 A2998 RMK A01 T01590137  RH  087%=      5-min Rain = 0
KCR1 240115Z 01008KT 16/14 A2998 RMK A01 T01590137  RH  087%=      5-min Rain = 0
KCR1 240116Z 01009KT 16/14 A2998 RMK A01 T01590137  RH  087%=      5-min Rain = 0
KCR1 240117Z 01009KT 16/14 A2998 RMK A01 T01580136  RH  087%=      5-min Rain = 0
KCR1 240118Z 01008KT 16/14 A2998 RMK A01 T01580136  RH  087%=      5-min Rain = 0
KCR1 240119Z 01008KT 16/14 A2998 RMK A01 T01580137  RH  087%=      5-min Rain = 0
KCR1 240120Z 01009KT 16/14 A2998 RMK A01 T01580137  RH  087%=      5-min Rain = 0
KCR1 240121Z 00008KT 16/14 A2998 RMK A01 T01580137  RH  087%=      5-min Rain = 0
KCR1 240122Z 00008KT 16/14 A2998 RMK A01 T01580138  RH  088%=      5-min Rain = 0
KCR1 240123Z 36008KT 16/14 A2999 RMK A01 T01580137  RH  087%=      5-min Rain = 0
KCR1 240124Z 36008KT 16/14 A2999 RMK A01 T01580137  RH  087%=      5-min Rain = 0
KCR1 240125Z 00009KT 16/14 A2999 RMK A01 T01580137  RH  087%=      5-min Rain = 0
KCR1 240126Z 36009KT 16/14 A2999 RMK A01 T01580137  RH  087%=      5-min Rain = 0
KCR1 240127Z 01009KT 16/14 A2999 RMK A01 T01580136  RH  087%=      5-min Rain = 0
KCR1 240128Z 36007KT 16/14 A2999 RMK A01 T01580137  RH  087%=      5-min Rain = 0
KCR1 240129Z 00007KT 16/14 A2999 RMK A01 T01580137  RH  087%=      5-min Rain = 0
KCR1 240130Z 01008KT 16/14 A2999 RMK A01 T01580137  RH  087%=      5-min Rain = 0
KCR1 240131Z 01008KT 16/14 A2999 RMK A01 T01580137  RH  087%=      5-min Rain = 0
KCR1 240132Z 01007KT 16/14 A2999 RMK A01 T01580137  RH  087%=      5-min Rain = 0
KCR1 240133Z 00008KT 16/14 A2999 RMK A01 T01580137  RH  087%=      5-min Rain = 0
KCR1 240134Z 00009KT 16/14 A30 RMK A01 T01580136  RH  087%=      5-min Rain = 0
KCR1 240135Z 00008KT 16/14 A30 RMK A01 T01580137  RH  087%=      5-min Rain = 0
KCR1 240136Z 36008KT 16/14 A30 RMK A01 T01580138  RH  088%=      5-min Rain = 0
KCR1 240137Z 00008KT 16/14 A30 RMK A01 T01580138  RH  088%=      5-min Rain = 0
KCR1 240138Z 00010KT 16/14 A30 RMK A01 T01580136  RH  087%=      5-min Rain = 0
KCR1 240139Z 00008KT 16/14 A30 RMK A01 T01580135  RH  087%=      5-min Rain = 0
KCR1 240140Z 01009KT 16/14 A30 RMK A01 T01580137  RH  087%=      5-min Rain = 0
KCR1 240141Z 01010KT 16/14 A2999 RMK A01 T01580137  RH  087%=      5-min Rain = 0
KCR1 240142Z 01011KT 16/14 A2999 RMK A01 T01570135  RH  087%=      5-min Rain = 0
KCR1 240143Z 00011KT 16/14 A2999 RMK A01 T01570135  RH  086%=      5-min Rain = 0
KCR1 240144Z 36011KT 16/14 A2999 RMK A01 T01570135  RH  087%=      5-min Rain = 0
KCR1 240145Z 00011KT 16/14 A2999 RMK A01 T01570135  RH  087%=      5-min Rain = 0
KCR1 240146Z 00010KT 16/14 A2999 RMK A01 T01570135  RH  086%=      5-min Rain = 0
KCR1 240147Z 00010KT 16/14 A2999 RMK A01 T01570135  RH  087%=      5-min Rain = 0
KCR1 240148Z 00010KT 16/14 A2999 RMK A01 T01570136  RH  087%=      5-min Rain = 0
KCR1 240149Z 00011KT 16/14 A2999 RMK A01 T01570136  RH  087%=      5-min Rain = 0
KCR1 240150Z 00011KT 16/14 A2999 RMK A01 T01570135  RH  087%=      5-min Rain = 0
KCR1 240151Z 01010KT 16/14 A2999 RMK A01 T01570135  RH  087%=      5-min Rain = 0
KCR1 240152Z 00010KT 16/14 A2999 RMK A01 T01570136  RH  087%=      5-min Rain = 0
KCR1 240153Z 01011KT 16/14 A2999 RMK A01 T01570135  RH  087%=      5-min Rain = 0
KCR1 240154Z 00012KT 16/14 A2999 RMK A01 T01570136  RH  087%=      5-min Rain = 0
KCR1 240155Z 01010KT 16/14 A2999 RMK A01 T01570135  RH  087%=      5-min Rain = 0
KCR1 240156Z 01008KT 16/14 A2999 RMK A01 T01570136  RH  088%=      5-min Rain = 0
KCR1 240157Z 01008KT 16/14 A2999 RMK A01 T01560136  RH  088%=      5-min Rain = 0
KCR1 240158Z 01009KT 16/14 A2999 RMK A01 T01560136  RH  088%=      5-min Rain = 0
KCR1 240159Z 01009KT 16/14 A30 RMK A01 T01560136  RH  088%=      5-min Rain = 0
KCR1 240200Z 01008KT 16/14 A30 RMK A01 T01560136  RH  088%=      5-min Rain = 0
KCR1 240201Z 01006KT 16/14 A30 RMK A01 T01560136  RH  088%=      5-min Rain = 0
KCR1 240202Z 02007KT 16/14 A30 RMK A01 T01560137  RH  088%=      5-min Rain = 0
KCR1 240203Z 02008KT 16/14 A30 RMK A01 T01560137  RH  088%=      5-min Rain = 0
KCR1 240204Z 02008KT 16/14 A30 RMK A01 T01560136  RH  088%=      5-min Rain = 0
KCR1 240205Z 03007KT 16/14 A30 RMK A01 T01560135  RH  088%=      5-min Rain = 0
KCR1 240206Z 04007KT 16/14 A30 RMK A01 T01560136  RH  088%=      5-min Rain = 0
KCR1 240207Z 03008KT 16/14 A30 RMK A01 T01560136  RH  088%=      5-min Rain = 0
KCR1 240208Z 03007KT 16/14 A30 RMK A01 T01560136  RH  088%=      5-min Rain = 0
KCR1 240209Z 03006KT 16/14 A30 RMK A01 T01560136  RH  088%=      5-min Rain = 0
KCR1 240210Z 04008KT 16/14 A30 RMK A01 T01560136  RH  088%=      5-min Rain = 0
KCR1 240211Z 04007KT 16/14 A30 RMK A01 T01560135  RH  087%=      5-min Rain = 0
KCR1 240212Z 04007KT 16/14 A30 RMK A01 T01560136  RH  088%=      5-min Rain = 0
KCR1 240213Z 04007KT 16/14 A30 RMK A01 T01560137  RH  088%=      5-min Rain = 0
KCR1 240214Z 04007KT 16/14 A2999 RMK A01 T01560137  RH  088%=      5-min Rain = 0
KCR1 240215Z 04007KT 16/14 A2999 RMK A01 T01560136  RH  088%=      5-min Rain = 0
KCR1 240216Z 04008KT 16/14 A2999 RMK A01 T01560137  RH  088%=      5-min Rain = 0
KCR1 240217Z 04007KT 16/14 A2999 RMK A01 T01560136  RH  088%=      5-min Rain = 0
KCR1 240218Z 03007KT 16/14 A2999 RMK A01 T01560137  RH  088%=      5-min Rain = 0
KCR1 240219Z 03007KT 16/14 A2999 RMK A01 T01560137  RH  088%=      5-min Rain = 0
KCR1 240220Z 03007KT 16/14 A30 RMK A01 T01560137  RH  088%=      5-min Rain = 0
KCR1 240221Z 03006KT 16/14 A30 RMK A01 T01560137  RH  089%=      5-min Rain = 0
KCR1 240222Z 03007KT 16/14 A30 RMK A01 T01560137  RH  089%=      5-min Rain = 0
KCR1 240223Z 03006KT 16/14 A30 RMK A01 T01550137  RH  089%=      5-min Rain = 0
KCR1 240224Z 03005KT 16/14 A30 RMK A01 T01550137  RH  089%=      5-min Rain = 0
KCR1 240225Z 04006KT 16/14 A30 RMK A01 T01560138  RH  089%=      5-min Rain = 0
KCR1 240226Z 04006KT 16/14 A30 RMK A01 T01560138  RH  089%=      5-min Rain = 0
KCR1 240227Z 04006KT 16/14 A30 RMK A01 T01560138  RH  089%=      5-min Rain = 0
KCR1 240228Z 05005KT 16/14 A30 RMK A01 T01560138  RH  089%=      5-min Rain = 0
KCR1 240229Z 05006KT 16/14 A30 RMK A01 T01550138  RH  090%=      5-min Rain = 0
KCR1 240230Z 05006KT 16/14 A30 RMK A01 T01550138  RH  090%=      5-min Rain = 0
KCR1 240231Z 05007KT 16/14 A30 RMK A01 T01550138  RH  089%=      5-min Rain = 0
KCR1 240232Z 04006KT 16/14 A30 RMK A01 T01550137  RH  089%=      5-min Rain = 0
KCR1 240233Z 03007KT 16/14 A2999 RMK A01 T01550138  RH  090%=      5-min Rain = 0
KCR1 240234Z 03007KT 16/14 A2999 RMK A01 T01550138  RH  090%=      5-min Rain = 0
KCR1 240235Z 03006KT 16/14 A2999 RMK A01 T01550138  RH  090%=      5-min Rain = 0
KCR1 240236Z 03007KT 16/14 A2999 RMK A01 T01550138  RH  090%=      5-min Rain = 0
KCR1 240237Z 02005KT 15/14 A30 RMK A01 T01540137  RH  090%=      5-min Rain = 0
KCR1 240238Z 02007KT 15/14 A30 RMK A01 T01540138  RH  090%=      5-min Rain = 0
KCR1 240239Z 01007KT 16/14 A30 RMK A01 T01550137  RH  089%=      5-min Rain = 0
KCR1 240240Z 01006KT 16/14 A30 RMK A01 T01550137  RH  089%=      5-min Rain = 0
KCR1 240241Z 01006KT 16/14 A30 RMK A01 T01550137  RH  089%=      5-min Rain = 0
KCR1 240242Z 02006KT 15/14 A30 RMK A01 T01540138  RH  090%=      5-min Rain = 0
KCR1 240243Z 01005KT 15/14 A30 RMK A01 T01540138  RH  090%=      5-min Rain = 0
KCR1 240244Z 01006KT 15/14 A30 RMK A01 T01540138  RH  090%=      5-min Rain = 0
KCR1 240245Z 02006KT 15/14 A30 RMK A01 T01540139  RH  091%=      5-min Rain = 0
KCR1 240246Z 02006KT 15/14 A30 RMK A01 T01540138  RH  091%=      5-min Rain = 0
KCR1 240247Z 03005KT 15/14 A30 RMK A01 T01540139  RH  091%=      5-min Rain = 0
KCR1 240248Z 04005KT 15/14 A30 RMK A01 T01540139  RH  091%=      5-min Rain = 0
KCR1 240249Z 03005KT 15/14 A30 RMK A01 T01540139  RH  091%=      5-min Rain = 0
KCR1 240250Z 03005KT 15/14 A30 RMK A01 T01530138  RH  091%=      5-min Rain = 0
KCR1 240251Z 04004KT 15/14 A30 RMK A01 T01540139  RH  091%=      5-min Rain = 0
KCR1 240252Z 04004KT 15/14 A30 RMK A01 T01540140  RH  091%=      5-min Rain = 0
KCR1 240253Z 03004KT 15/14 A30 RMK A01 T01540140  RH  091%=      5-min Rain = 0
KCR1 240254Z 03005KT 15/14 A30 RMK A01 T01530140  RH  092%=      5-min Rain = 0
KCR1 240255Z 03006KT 15/14 A30 RMK A01 T01530140  RH  091%=      5-min Rain = 0
KCR1 240256Z 03005KT 15/14 A3001 RMK A01 T01530138  RH  091%=      5-min Rain = 0
KCR1 240257Z 03005KT 15/14 A3001 RMK A01 T01530139  RH  091%=      5-min Rain = 0
KCR1 240258Z 03005KT 15/14 A3001 RMK A01 T01530139  RH  091%=      5-min Rain = 0
KCR1 240259Z 03006KT 15/14 A3001 RMK A01 T01530139  RH  091%=      5-min Rain = 0
KCR1 240300Z 03005KT 15/14 A30 RMK A01 T01530139  RH  091%=      5-min Rain = 0
KCR1 240301Z 04005KT 15/14 A30 RMK A01 T01530139  RH  091%=      5-min Rain = 0
KCR1 240302Z 03006KT 15/14 A30 RMK A01 T01530139  RH  091%=      5-min Rain = 0
KCR1 240303Z 03006KT 15/14 A30 RMK A01 T01530138  RH  091%=      5-min Rain = 0
KCR1 240304Z 03006KT 15/14 A30 RMK A01 T01530138  RH  091%=      5-min Rain = 0
KCR1 240305Z 03007KT 15/14 A30 RMK A01 T01530138  RH  090%=      5-min Rain = 0
KCR1 240306Z 03006KT 15/14 A30 RMK A01 T01530137  RH  090%=      5-min Rain = 0
KCR1 240307Z 04005KT 15/14 A30 RMK A01 T01530138  RH  091%=      5-min Rain = 0
KCR1 240308Z 04006KT 15/14 A30 RMK A01 T01530138  RH  091%=      5-min Rain = 0
KCR1 240309Z 04006KT 15/14 A30 RMK A01 T01530138  RH  091%=      5-min Rain = 0
KCR1 240310Z 04006KT 15/14 A30 RMK A01 T01530137  RH  090%=      5-min Rain = 0
KCR1 240311Z 04007KT 15/14 A30 RMK A01 T01530137  RH  090%=      5-min Rain = 0
KCR1 240312Z 04006KT 15/14 A30 RMK A01 T01530137  RH  090%=      5-min Rain = 0
KCR1 240313Z 04006KT 15/14 A30 RMK A01 T01530137  RH  090%=      5-min Rain = 0
KCR1 240314Z 03006KT 15/14 A30 RMK A01 T01530137  RH  090%=      5-min Rain = 0
KCR1 240315Z 04007KT 15/14 A30 RMK A01 T01530137  RH  090%=      5-min Rain = 0
KCR1 240316Z 03006KT 15/14 A30 RMK A01 T01530137  RH  090%=      5-min Rain = 0
KCR1 240317Z 03007KT 15/14 A30 RMK A01 T01520137  RH  090%=      5-min Rain = 0
KCR1 240318Z 03008KT 15/14 A30 RMK A01 T01520136  RH  090%=      5-min Rain = 0
KCR1 240319Z 03007KT 15/14 A30 RMK A01 T01520135  RH  090%=      5-min Rain = 0
KCR1 240320Z 03007KT 15/14 A30 RMK A01 T01520135  RH  090%=      5-min Rain = 0
KCR1 240321Z 03008KT 15/14 A30 RMK A01 T01520135  RH  090%=      5-min Rain = 0
KCR1 240322Z 02007KT 15/13 A30 RMK A01 T01520134  RH  089%=      5-min Rain = 0
KCR1 240323Z 03007KT 15/14 A30 RMK A01 T01520135  RH  089%=      5-min Rain = 0
KCR1 240324Z 03006KT 15/14 A30 RMK A01 T01520135  RH  090%=      5-min Rain = 0
KCR1 240325Z 03006KT 15/14 A30 RMK A01 T01510135  RH  090%=      5-min Rain = 0
KCR1 240326Z 03006KT 15/14 A2999 RMK A01 T01510135  RH  090%=      5-min Rain = 0
KCR1 240327Z 03006KT 15/14 A2999 RMK A01 T01510135  RH  090%=      5-min Rain = 0
KCR1 240328Z 03007KT 15/14 A2999 RMK A01 T01510135  RH  090%=      5-min Rain = 0
KCR1 240329Z 03007KT 15/14 A2999 RMK A01 T01510135  RH  090%=      5-min Rain = 0
KCR1 240330Z 03006KT 15/14 A2999 RMK A01 T01510135  RH  090%=      5-min Rain = 0
KCR1 240331Z 03006KT 15/14 A2999 RMK A01 T01500135  RH  090%=      5-min Rain = 0
KCR1 240332Z 02006KT 15/14 A2999 RMK A01 T01500135  RH  091%=      5-min Rain = 0
KCR1 240333Z 02006KT 15/14 A2998 RMK A01 T01500135  RH  091%=      5-min Rain = 0
KCR1 240334Z 02006KT 15/14 A2998 RMK A01 T01500136  RH  091%=      5-min Rain = 0
KCR1 240335Z 02007KT 15/14 A2998 RMK A01 T01490135  RH  091%=      5-min Rain = 0
KCR1 240336Z 02007KT 15/14 A2998 RMK A01 T01490135  RH  091%=      5-min Rain = 0
KCR1 240337Z 02006KT 15/14 A2998 RMK A01 T01490135  RH  091%=      5-min Rain = 0
KCR1 240338Z 02007KT 15/14 A2998 RMK A01 T01490135  RH  092%=      5-min Rain = 0
KCR1 240339Z 02008KT 15/14 A2998 RMK A01 T01480135  RH  092%=      5-min Rain = 0
KCR1 240340Z 02007KT 15/13 A2998 RMK A01 T01480134  RH  091%=      5-min Rain = 0
KCR1 240341Z 02006KT 15/13 A2998 RMK A01 T01480134  RH  091%=      5-min Rain = 0
KCR1 240342Z 02006KT 15/13 A2998 RMK A01 T01480134  RH  091%=      5-min Rain = 0
KCR1 240343Z 03006KT 15/13 A2999 RMK A01 T01480134  RH  091%=      5-min Rain = 0
KCR1 240344Z 02006KT 15/13 A2999 RMK A01 T01480134  RH  091%=      5-min Rain = 0
KCR1 240345Z 03006KT 15/13 A2999 RMK A01 T01470133  RH  091%=      5-min Rain = 0
KCR1 240346Z 03006KT 15/13 A2999 RMK A01 T01480133  RH  091%=      5-min Rain = 0
KCR1 240347Z 03007KT 15/13 A2999 RMK A01 T01480133  RH  091%=      5-min Rain = 0
KCR1 240348Z 03007KT 15/13 A2999 RMK A01 T01470132  RH  091%=      5-min Rain = 0
KCR1 240349Z 03006KT 15/13 A2999 RMK A01 T01470132  RH  091%=      5-min Rain = 0
KCR1 240350Z 02006KT 15/13 A2999 RMK A01 T01470133  RH  091%=      5-min Rain = 0
KCR1 240351Z 02007KT 15/13 A2999 RMK A01 T01470133  RH  091%=      5-min Rain = 0
KCR1 240352Z 02006KT 15/13 A2999 RMK A01 T01470132  RH  091%=      5-min Rain = 0
KCR1 240353Z 02007KT 15/13 A2999 RMK A01 T01470132  RH  091%=      5-min Rain = 0
KCR1 240354Z 02007KT 15/13 A2998 RMK A01 T01460132  RH  091%=      5-min Rain = 0
KCR1 240355Z 02007KT 15/13 A2998 RMK A01 T01460131  RH  091%=      5-min Rain = 0
KCR1 240356Z 02007KT 15/13 A2998 RMK A01 T01460131  RH  091%=      5-min Rain = 0
KCR1 240357Z 02007KT 15/13 A2998 RMK A01 T01460132  RH  091%=      5-min Rain = 0
KCR1 240358Z 01008KT 15/13 A2998 RMK A01 T01460131  RH  091%=      5-min Rain = 0
KCR1 240359Z 01008KT 15/13 A2998 RMK A01 T01460132  RH  091%=      5-min Rain = 0
KCR1 240400Z 01007KT 15/13 A2998 RMK A01 T01460131  RH  091%=      5-min Rain = 0
KCR1 240401Z 01008KT 15/13 A2998 RMK A01 T01460132  RH  091%=      5-min Rain = 0
KCR1 240402Z 01008KT 15/13 A2998 RMK A01 T01450131  RH  091%=      5-min Rain = 0
KCR1 240403Z 01008KT 15/13 A2998 RMK A01 T01460132  RH  091%=      5-min Rain = 0
KCR1 240404Z 01009KT 15/13 A2998 RMK A01 T01450131  RH  091%=      5-min Rain = 0
KCR1 240405Z 01007KT 15/13 A2998 RMK A01 T01450131  RH  091%=      5-min Rain = 0
KCR1 240406Z 01009KT 15/13 A2998 RMK A01 T01450131  RH  091%=      5-min Rain = 0
KCR1 240407Z 00007KT 15/13 A2998 RMK A01 T01450131  RH  091%=      5-min Rain = 0
KCR1 240408Z 00007KT 15/13 A2998 RMK A01 T01450131  RH  091%=      5-min Rain = 0
KCR1 240409Z 00006KT 15/13 A2998 RMK A01 T01450131  RH  091%=      5-min Rain = 0
KCR1 240410Z 00006KT 15/13 A2998 RMK A01 T01450132  RH  091%=      5-min Rain = 0
KCR1 240411Z 00006KT 15/13 A2998 RMK A01 T01450131  RH  092%=      5-min Rain = 0
KCR1 240412Z 00006KT 15/13 A2998 RMK A01 T01450132  RH  092%=      5-min Rain = 0
KCR1 240413Z 00006KT 15/13 A2998 RMK A01 T01450132  RH  092%=      5-min Rain = 0
KCR1 240414Z 00006KT 14/13 A2998 RMK A01 T01440131  RH  092%=      5-min Rain = 0
KCR1 240415Z 00006KT 14/13 A2999 RMK A01 T01440131  RH  092%=      5-min Rain = 0
KCR1 240416Z 00005KT 14/13 A2999 RMK A01 T01440132  RH  092%=      5-min Rain = 0
KCR1 240417Z 00005KT 14/13 A2999 RMK A01 T01440132  RH  092%=      5-min Rain = 0
KCR1 240418Z 01006KT 14/13 A2999 RMK A01 T01440131  RH  092%=      5-min Rain = 0
KCR1 240419Z 01006KT 14/13 A2999 RMK A01 T01440131  RH  092%=      5-min Rain = 0
KCR1 240420Z 01005KT 14/13 A2999 RMK A01 T01440131  RH  092%=      5-min Rain = 0
KCR1 240421Z 01006KT 14/13 A2999 RMK A01 T01440132  RH  092%=      5-min Rain = 0
KCR1 240422Z 01006KT 14/13 A2999 RMK A01 T01440132  RH  092%=      5-min Rain = 0
KCR1 240423Z 01006KT 14/13 A2999 RMK A01 T01440131  RH  092%=      5-min Rain = 0
KCR1 240424Z 01006KT 14/13 A2999 RMK A01 T01440131  RH  092%=      5-min Rain = 0
KCR1 240425Z 00006KT 14/13 A2999 RMK A01 T01440131  RH  092%=      5-min Rain = 0
KCR1 240426Z 01006KT 14/13 A2999 RMK A01 T01440131  RH  092%=      5-min Rain = 0
KCR1 240427Z 00005KT 14/13 A2999 RMK A01 T01440131  RH  092%=      5-min Rain = 0
KCR1 240428Z 36006KT 14/13 A2999 RMK A01 T01440132  RH  092%=      5-min Rain = 0
KCR1 240429Z 36006KT 14/13 A2999 RMK A01 T01440132  RH  092%=      5-min Rain = 0
KCR1 240430Z 36005KT 14/13 A2999 RMK A01 T01440132  RH  092%=      5-min Rain = 0
KCR1 240431Z 35006KT 14/13 A2999 RMK A01 T01440132  RH  092%=      5-min Rain = 0
KCR1 240432Z 35006KT 14/13 A2999 RMK A01 T01440132  RH  092%=      5-min Rain = 0
KCR1 240433Z 35006KT 14/13 A30 RMK A01 T01440132  RH  092%=      5-min Rain = 0
KCR1 240434Z 35006KT 14/13 A30 RMK A01 T01440131  RH  092%=      5-min Rain = 0
KCR1 240435Z 34006KT 14/13 A30 RMK A01 T01440132  RH  092%=      5-min Rain = 0
KCR1 240436Z 35006KT 14/13 A30 RMK A01 T01440131  RH  092%=      5-min Rain = 0
KCR1 240437Z 35005KT 14/13 A30 RMK A01 T01430131  RH  092%=      5-min Rain = 0
KCR1 240438Z 35005KT 14/13 A30 RMK A01 T01440132  RH  092%=      5-min Rain = 0
KCR1 240439Z 35006KT 14/13 A30 RMK A01 T01440132  RH  092%=      5-min Rain = 0
KCR1 240440Z 35006KT 14/13 A30 RMK A01 T01440131  RH  092%=      5-min Rain = 0
KCR1 240441Z 35006KT 14/13 A30 RMK A01 T01430131  RH  092%=      5-min Rain = 0
KCR1 240442Z 35006KT 14/13 A30 RMK A01 T01440132  RH  092%=      5-min Rain = 0
KCR1 240443Z 35006KT 14/13 A30 RMK A01 T01440132  RH  092%=      5-min Rain = 0
KCR1 240444Z 34006KT 14/13 A30 RMK A01 T01440131  RH  092%=      5-min Rain = 0
KCR1 240445Z 35007KT 14/13 A30 RMK A01 T01440132  RH  093%=      5-min Rain = 0
KCR1 240446Z 35007KT 14/13 A30 RMK A01 T01440131  RH  092%=      5-min Rain = 0
KCR1 240447Z 35007KT 14/13 A30 RMK A01 T01440131  RH  092%=      5-min Rain = 0
KCR1 240448Z 35007KT 14/13 A30 RMK A01 T01440131  RH  092%=      5-min Rain = 0
KCR1 240449Z 35007KT 14/13 A30 RMK A01 T01440131  RH  092%=      5-min Rain = 0
KCR1 240450Z 35006KT 14/13 A30 RMK A01 T01440131  RH  092%=      5-min Rain = 0
KCR1 240451Z 35006KT 14/13 A30 RMK A01 T01440132  RH  092%=      5-min Rain = 0
KCR1 240452Z 35006KT 14/13 A30 RMK A01 T01430132  RH  093%=      5-min Rain = 0
KCR1 240453Z 34006KT 14/13 A30 RMK A01 T01440132  RH  093%=      5-min Rain = 0
KCR1 240454Z 35006KT 14/13 A30 RMK A01 T01430131  RH  092%=      5-min Rain = 0
KCR1 240455Z 35006KT 14/13 A30 RMK A01 T01430131  RH  092%=      5-min Rain = 0
KCR1 240456Z 35006KT 14/13 A30 RMK A01 T01430132  RH  093%=      5-min Rain = 0
KCR1 240457Z 36006KT 14/13 A30 RMK A01 T01430132  RH  093%=      5-min Rain = 0
KCR1 240458Z 00007KT 14/13 A30 RMK A01 T01430132  RH  093%=      5-min Rain = 0
KCR1 240459Z 36006KT 14/13 A30 RMK A01 T01420131  RH  093%=      5-min Rain = 0

Page generated in 0.0724 seconds.